M I D A S
Marine Information and Data Acquisition System
Tripno 2122 of the Zeeleeuw from 2011-06-17 07:37:05 to 2011-06-17 14:36:01
Back to CruiseResearch ActivitiesStationsMapUnderway DataData graphs

EquipmentUnitsComment
TimeDGPSUTC
LatitudeDGPSDM.mWGS84
LongitudeDGPSDM.mWGS84
TemperatureSBE03/SBE38deg celciusITS90
ConductivitySBE21S/mITS90
SalinitySBE21 Practical Salinity Units
ChlorophylAChelsea fluorimeterg/lCalibrated in Aceton
Missing or incorrect values are displayed as -999
Sea surface data collected by the RV Zeeleeuw from 2011-06-17 07:27:08 to 2011-06-17 15:16:07
                                                                                    Next 1000 lines
Time Latitude Longitude Temperature Conductivity Salinity ChlorophylA
2011-06-17 07:27:18 51°13.637 2°56.01 20.2252 0.01197 0.068887 -3.020363
2011-06-17 07:27:23 51°13.639 2°56.006 20.2339 0.01197 0.068887 -3.020363
2011-06-17 07:27:28 51°13.641 2°56 20.221 0.01197 0.068887 -3.020363
2011-06-17 07:27:34 51°13.643 2°55.992 20.2562 0.01197 0.068888 -3.020363
2011-06-17 07:27:38 51°13.645 2°55.987 20.2462 0.01197 0.068888 -3.020363
2011-06-17 07:27:43 51°13.647 2°55.979 20.252 0.01197 0.068889 -3.020363
2011-06-17 07:27:48 51°13.649 2°55.972 20.2538 0.01197 0.068889 -3.020363
2011-06-17 07:27:54 51°13.652 2°55.963 20.2559 0.01197 0.068889 -3.020363
2011-06-17 07:27:58 51°13.653 2°55.957 20.2569 0.01197 0.068889 -3.020363
2011-06-17 07:28:03 51°13.655 2°55.949 20.261 0.01197 0.068889 -3.020363
2011-06-17 07:28:08 51°13.657 2°55.941 20.263 0.01197 0.06889 -3.020363
2011-06-17 07:28:14 51°13.659 2°55.933 20.2841 0.01197 0.06889 -3.020363
2011-06-17 07:28:18 51°13.66 2°55.929 20.2702 0.01197 0.06889 -3.020363
2011-06-17 07:28:23 51°13.661 2°55.925 20.2743 0.01197 0.068891 -3.020363
2011-06-17 07:28:28 51°13.662 2°55.923 20.2023 0.01197 0.068891 -3.020363
2011-06-17 07:28:33 51°13.662 2°55.92 20.2172 0.01197 0.068891 -3.020363
2011-06-17 07:28:38 51°13.663 2°55.917 20.1932 0.01197 0.068891 -3.020363
2011-06-17 07:28:43 51°13.664 2°55.913 20.2002 0.01197 0.068891 -3.020363
2011-06-17 07:28:48 51°13.665 2°55.909 20.2158 0.01197 0.068891 -3.020363
2011-06-17 07:28:52 51°13.666 2°55.905 20.2088 0.01197 0.068891 -3.020363
2011-06-17 07:28:58 51°13.667 2°55.899 20.2178 0.01197 0.068891 -3.020363
2011-06-17 07:29:02 51°13.668 2°55.895 20.2234 0.01197 0.068892 -3.020363
2011-06-17 07:29:08 51°13.669 2°55.888 20.2478 0.01197 0.068893 -3.020363
2011-06-17 07:29:13 51°13.67 2°55.882 20.2572 0.01197 0.068893 -3.020363
2011-06-17 07:29:18 51°13.671 2°55.875 20.2542 0.01197 0.068893 -3.020363
2011-06-17 07:29:23 51°13.673 2°55.869 20.246 0.01197 0.068893 -3.020363
2011-06-17 07:29:28 51°13.674 2°55.863 20.2502 0.01197 0.068893 -3.020363
2011-06-17 07:29:33 51°13.676 2°55.856 20.2561 0.01197 0.068894 -3.020363
2011-06-17 07:29:38 51°13.679 2°55.849 20.2565 0.01197 0.068894 -3.020363
2011-06-17 07:29:43 51°13.681 2°55.842 20.2577 0.01197 0.068895 -3.020363
2011-06-17 07:29:48 51°13.683 2°55.835 20.2592 0.01197 0.068894 -3.020363
2011-06-17 07:29:53 51°13.686 2°55.827 20.259 0.01197 0.068895 -3.020363
2011-06-17 07:29:58 51°13.689 2°55.82 20.2538 0.01197 0.068895 -3.020363
2011-06-17 07:30:03 51°13.692 2°55.814 20.2548 0.01197 0.068895 -3.020363
2011-06-17 07:30:09 51°13.696 2°55.806 20.2569 0.01197 0.068895 -3.020363
2011-06-17 07:30:14 51°13.7 2°55.799 20.262 0.01197 0.068895 -3.020363
2011-06-17 07:30:18 51°13.702 2°55.794 20.2556 0.01197 0.068896 -3.020363
2011-06-17 07:30:23 51°13.706 2°55.787 20.2551 0.01197 0.068896 -3.020363
2011-06-17 07:30:28 51°13.71 2°55.781 20.2597 0.01197 0.068896 -3.020363
2011-06-17 07:30:34 51°13.714 2°55.773 20.2677 0.01197 0.068896 -3.020363
2011-06-17 07:30:39 51°13.718 2°55.767 20.272 0.01197 0.068897 -3.020363
2011-06-17 07:30:43 51°13.721 2°55.762 20.271 0.01197 0.068897 -3.020363
2011-06-17 07:30:48 51°13.725 2°55.755 20.2724 0.01197 0.068897 -3.020363
2011-06-17 07:30:53 51°13.729 2°55.749 20.2739 0.01197 0.068897 -3.020363
2011-06-17 07:30:58 51°13.733 2°55.743 20.2646 0.01197 0.068897 -3.020363
2011-06-17 07:31:03 51°13.737 2°55.737 20.2585 0.01197 0.068898 -3.020363
2011-06-17 07:31:07 51°13.74 2°55.732 20.2543 0.01197 0.068897 -3.020363
2011-06-17 07:31:13 51°13.745 2°55.725 20.2632 0.01197 0.068897 -3.020363
2011-06-17 07:31:19 51°13.751 2°55.718 20.2707 0.01197 0.068898 -3.020363
2011-06-17 07:31:24 51°13.757 2°55.712 20.2743 0.01197 0.068898 -3.020363
2011-06-17 07:31:28 51°13.762 2°55.706 20.2751 0.01197 0.068898 -3.020363
2011-06-17 07:31:33 51°13.767 2°55.699 20.3013 0.01197 0.068898 -3.020363
2011-06-17 07:31:38 51°13.773 2°55.692 20.2925 0.01197 0.068898 -3.020363
2011-06-17 07:31:43 51°13.778 2°55.685 20.2795 0.01197 0.068899 -3.020363
2011-06-17 07:31:48 51°13.784 2°55.68 20.2725 0.01197 0.068899 -3.020363
2011-06-17 07:31:53 51°13.789 2°55.673 20.2917 0.01197 0.068899 -3.020363
2011-06-17 07:31:58 51°13.794 2°55.667 20.2897 0.01197 0.068899 -3.020363
2011-06-17 07:32:03 51°13.799 2°55.661 20.2828 0.01197 0.068899 -3.020363
2011-06-17 07:32:08 51°13.804 2°55.656 20.262 0.01197 0.068899 -3.020363
2011-06-17 07:32:13 51°13.809 2°55.651 20.291 0.01197 0.0689 -3.020363
2011-06-17 07:32:18 51°13.814 2°55.645 20.2748 0.01197 0.0689 -3.020363
2011-06-17 07:32:23 51°13.82 2°55.64 20.2808 0.01197 0.0689 -3.020363
2011-06-17 07:32:28 51°13.825 2°55.636 20.2794 0.01197 0.0689 -3.020363
2011-06-17 07:32:33 51°13.83 2°55.632 20.285 0.01197 0.0689 -3.020363
2011-06-17 07:32:38 51°13.836 2°55.628 20.2799 0.01197 0.068901 -3.020363
2011-06-17 07:32:43 51°13.841 2°55.624 20.287 0.01197 0.068901 -3.020363
2011-06-17 07:32:48 51°13.847 2°55.621 20.2973 0.01197 0.068901 -3.020363
2011-06-17 07:32:53 51°13.852 2°55.618 20.2894 0.01197 0.068901 -3.020363
2011-06-17 07:32:58 51°13.858 2°55.615 20.2908 0.01197 0.068901 -3.020363
2011-06-17 07:33:03 51°13.864 2°55.612 20.2955 0.01197 0.068901 -3.020363
2011-06-17 07:33:08 51°13.869 2°55.61 20.2917 0.01197 0.068901 -3.020363
2011-06-17 07:33:13 51°13.875 2°55.608 20.2979 0.01197 0.068901 -3.020363
2011-06-17 07:33:19 51°13.881 2°55.607 19.5891 0.01197 0.068901 -3.020363
2011-06-17 07:33:24 51°13.886 2°55.605 18.7417 0.01197 0.06894 -3.020363
2011-06-17 07:33:28 51°13.89 2°55.605 18.3936 0.01197 0.06894 -3.020363
2011-06-17 07:33:33 51°13.896 2°55.604 17.8323 0.01197 0.069005 -3.020363
2011-06-17 07:33:38 51°13.901 2°55.604 17.5439 3.378443 24.968314 -3.020363
2011-06-17 07:33:43 51°13.906 2°55.604 17.455 3.460925 24.821641 -3.020363
2011-06-17 07:33:48 51°13.911 2°55.604 17.3839 4.263431 31.205426 -3.020363
2011-06-17 07:33:53 51°13.916 2°55.605 17.3018 4.198525 30.609965 -3.020363
2011-06-17 07:33:58 51°13.921 2°55.606 17.2696 4.198525 30.609965 -3.020363
2011-06-17 07:34:03 51°13.926 2°55.607 17.161 4.143791 30.326387 -3.020363
2011-06-17 07:34:08 51°13.931 2°55.609 17.1747 4.102541 30.277279 -3.020363
2011-06-17 07:34:13 51°13.935 2°55.612 17.0967 4.076115 30.332538 -3.020363
2011-06-17 07:34:18 51°13.939 2°55.614 17.0544 4.046373 30.347039 -3.020363
2011-06-17 07:34:23 51°13.943 2°55.617 17.0439 4.012486 30.204352 -3.020363
2011-06-17 07:34:28 51°13.947 2°55.619 17.0031 4.012486 30.204352 -3.020363
2011-06-17 07:34:33 51°13.95 2°55.621 17.0064 4.010726 30.31218 -3.020363
2011-06-17 07:34:38 51°13.953 2°55.623 16.9991 3.985338 30.199353 -3.020363
2011-06-17 07:34:43 51°13.954 2°55.624 16.9726 3.991557 30.317546 -3.020363
2011-06-17 07:34:48 51°13.955 2°55.625 16.9518 3.977775 30.255996 -3.020363
2011-06-17 07:34:53 51°13.956 2°55.624 16.9507 3.971766 30.258419 -3.020363
2011-06-17 07:34:57 51°13.956 2°55.623 16.9357 3.971766 30.258419 -3.020363
2011-06-17 07:35:02 51°13.956 2°55.62 16.9303 3.972492 30.302449 -3.020363
2011-06-17 07:35:07 51°13.956 2°55.615 16.9467 3.976845 30.372612 -3.020363
2011-06-17 07:35:12 51°13.956 2°55.609 16.9732 3.97498 30.379718 -3.020363
2011-06-17 07:35:17 51°13.956 2°55.602 16.9263 3.971975 30.376526 -3.020363
2011-06-17 07:35:21 51°13.957 2°55.596 16.9262 3.984618 30.501235 -3.020363
2011-06-17 07:35:26 51°13.959 2°55.589 16.9571 3.984618 30.501235 -3.020363
2011-06-17 07:35:31 51°13.962 2°55.581 16.9301 3.980577 30.4832 -3.020363
2011-06-17 07:35:36 51°13.965 2°55.573 16.9243 3.975603 30.454156 -3.020363
2011-06-17 07:35:41 51°13.97 2°55.565 16.9544 3.979541 30.489576 -3.020363
2011-06-17 07:35:45 51°13.974 2°55.559 16.9426 3.968867 30.398527 -3.020363
2011-06-17 07:35:50 51°13.98 2°55.551 16.9332 3.687707 28.021429 -3.020363
2011-06-17 07:35:56 51°13.989 2°55.542 16.9236 3.687707 28.021429 -3.020363
2011-06-17 07:36:02 51°13.998 2°55.533 16.9432 3.980266 30.50734 -3.020363
2011-06-17 07:36:07 51°14.005 2°55.526 16.9637 3.980163 30.508284 -3.020363
2011-06-17 07:36:13 51°14.015 2°55.517 16.9557 3.570587 27.042421 -3.020363
2011-06-17 07:36:17 51°14.022 2°55.511 16.9458 3.975603 30.469366 -3.020363
2011-06-17 07:36:22 51°14.03 2°55.504 16.9463 3.96037 30.339399 -3.020363
2011-06-17 07:36:27 51°14.039 2°55.497 16.9586 3.96037 30.339399 -3.020363
2011-06-17 07:36:32 51°14.048 2°55.49 16.9543 3.946277 30.22225 -3.020363
2011-06-17 07:36:37 51°14.057 2°55.483 16.9218 3.922859 30.023297 -3.020363
2011-06-17 07:36:44 51°14.07 2°55.473 16.9206 3.89851 29.813024 -3.020363
2011-06-17 07:36:49 51°14.081 2°55.465 16.9159 3.883176 29.67963 -3.020363
2011-06-17 07:36:54 51°14.091 2°55.458 16.9135 3.872504 29.590099 -3.020363
2011-06-17 07:36:58 51°14.1 2°55.452 16.9064 3.872504 29.590099 -3.020363
2011-06-17 07:37:03 51°14.111 2°55.444 16.9164 3.867221 29.546966 -3.020363
2011-06-17 07:37:08 51°14.122 2°55.436 16.9185 3.866806 29.543444 -3.020363
2011-06-17 07:37:14 51°14.135 2°55.425 16.9059 3.865252 29.534957 -3.020363
2011-06-17 07:37:18 51°14.144 2°55.418 16.912 3.866185 29.550554 -3.020363
2011-06-17 07:37:23 51°14.156 2°55.409 16.9161 3.868775 29.57671 -3.020363
2011-06-17 07:37:28 51°14.167 2°55.4 16.9061 3.868775 29.57671 -3.020363
2011-06-17 07:37:34 51°14.181 2°55.388 16.9211 3.871987 29.608164 -3.020363
2011-06-17 07:37:38 51°14.191 2°55.381 16.9205 3.877892 29.660177 -3.020363
2011-06-17 07:37:43 51°14.203 2°55.372 16.9177 3.882347 29.698678 -3.020363
2011-06-17 07:37:48 51°14.215 2°55.362 16.9196 3.887632 29.746027 -3.020363
2011-06-17 07:37:53 51°14.228 2°55.353 16.9126 3.890222 29.769266 -3.020363
2011-06-17 07:37:58 51°14.24 2°55.343 16.9291 3.890222 29.769266 -3.020363
2011-06-17 07:38:03 51°14.253 2°55.334 16.9163 3.895299 29.813684 -3.020363
2011-06-17 07:38:08 51°14.265 2°55.324 16.9093 3.898925 29.844567 -3.020363
2011-06-17 07:38:13 51°14.278 2°55.314 16.9077 3.8982 29.837197 -3.020363
2011-06-17 07:38:18 51°14.29 2°55.303 16.9001 3.895299 29.811896 -3.020363
2011-06-17 07:38:23 51°14.303 2°55.293 16.9074 3.894781 29.808677 -3.020363
2011-06-17 07:38:28 51°14.315 2°55.28 16.8993 3.894781 29.808677 -3.020363
2011-06-17 07:38:33 51°14.328 2°55.268 16.8901 3.893537 29.79809 -3.020363
2011-06-17 07:38:38 51°14.34 2°55.255 16.8854 3.893434 29.796017 -3.020363
2011-06-17 07:38:42 51°14.351 2°55.245 16.8721 3.894573 29.807508 -3.020363
2011-06-17 07:38:48 51°14.366 2°55.229 16.8734 3.898925 29.848745 -3.020363
2011-06-17 07:38:53 51°14.378 2°55.214 16.8629 3.900997 29.868786 -3.020363
2011-06-17 07:38:59 51°14.394 2°55.197 16.85 3.900997 29.868786 -3.020363
2011-06-17 07:39:03 51°14.404 2°55.185 16.8267 3.904624 29.900879 -3.020363
2011-06-17 07:39:09 51°14.42 2°55.168 16.8218 3.910012 29.950987 -3.020363
2011-06-17 07:39:13 51°14.431 2°55.156 16.8241 3.91654 30.010238 -3.020363
2011-06-17 07:39:18 51°14.444 2°55.142 16.8294 3.930424 30.134095 -3.020363
2011-06-17 07:39:23 51°14.458 2°55.127 16.8101 3.940786 30.226772 -3.020363
2011-06-17 07:39:28 51°14.472 2°55.114 16.7989 3.940786 30.226772 -3.020363
2011-06-17 07:39:33 51°14.486 2°55.101 16.7954 3.96006 30.396877 -3.020363
2011-06-17 07:39:38 51°14.501 2°55.087 16.7915 3.981511 30.590697 -3.020363
2011-06-17 07:39:43 51°14.516 2°55.074 16.7703 4.007108 30.822186 -3.020363
2011-06-17 07:39:47 51°14.528 2°55.062 16.7812 4.018819 30.928759 -3.020363
2011-06-17 07:39:52 51°14.543 2°55.048 16.7529 4.032914 31.052765 -3.020363
2011-06-17 07:39:57 51°14.558 2°55.032 16.7428 4.032914 31.052765 -3.020363
2011-06-17 07:40:02 51°14.572 2°55.016 16.7411 4.049186 31.199311 -3.020363
2011-06-17 07:40:07 51°14.587 2°54.998 16.7473 4.060172 31.300589 -3.020363
2011-06-17 07:40:11 51°14.599 2°54.986 16.7497 4.072403 31.41139 -3.020363
2011-06-17 07:40:16 51°14.615 2°54.972 16.7336 4.086914 31.544442 -3.020363
2011-06-17 07:40:22 51°14.634 2°54.956 16.7373 4.100078 31.668579 -3.020363
2011-06-17 07:40:27 51°14.649 2°54.944 16.7032 4.100078 31.668579 -3.020363
2011-06-17 07:40:31 51°14.662 2°54.933 16.6873 4.108785 31.752527 -3.020363
2011-06-17 07:40:36 51°14.678 2°54.922 16.6606 4.118114 31.840633 -3.020363
2011-06-17 07:40:41 51°14.695 2°54.911 16.6317 4.120913 31.868618 -3.020363
2011-06-17 07:40:46 51°14.711 2°54.9 16.6099 4.118114 31.845116 -3.020363
2011-06-17 07:40:51 51°14.727 2°54.891 16.5858 4.116249 31.833503 -3.020363
2011-06-17 07:40:55 51°14.74 2°54.883 16.5698 4.116249 31.833503 -3.020363
2011-06-17 07:41:00 51°14.757 2°54.873 16.554 4.115212 31.832885 -3.020363
2011-06-17 07:41:05 51°14.773 2°54.864 16.5411 4.132731 31.99826 -3.020363
2011-06-17 07:41:10 51°14.789 2°54.856 16.5507 4.152634 32.185165 -3.020363
2011-06-17 07:41:15 51°14.806 2°54.848 16.515 4.169844 32.357528 -3.020363
2011-06-17 07:41:20 51°14.823 2°54.842 16.5014 4.194725 32.592205 -3.020363
2011-06-17 07:41:25 51°14.839 2°54.835 16.4815 4.194725 32.592205 -3.020363
2011-06-17 07:41:30 51°14.856 2°54.827 16.4753 4.208514 32.729694 -3.020363
2011-06-17 07:41:35 51°14.872 2°54.819 16.4625 4.228421 32.919932 -3.020363
2011-06-17 07:41:40 51°14.888 2°54.811 16.4835 4.235368 32.998359 -3.020363
2011-06-17 07:41:44 51°14.901 2°54.803 16.4568 4.252787 33.162089 -3.020363
2011-06-17 07:41:50 51°14.921 2°54.791 16.4373 4.2644 33.276087 -3.020363
2011-06-17 07:41:55 51°14.936 2°54.78 16.4307 4.2644 33.276087 -3.020363
2011-06-17 07:42:00 51°14.952 2°54.767 16.4149 4.277051 33.404687 -3.020363
2011-06-17 07:42:04 51°14.964 2°54.757 16.426 4.298412 33.60621 -3.020363
2011-06-17 07:42:09 51°14.979 2°54.744 16.4032 4.306812 33.689884 -3.020363
2011-06-17 07:42:14 51°14.994 2°54.73 16.4029 4.310752 33.731192 -3.020363
2011-06-17 07:42:20 51°15.012 2°54.714 16.3897 4.319152 33.818418 -3.020363
2011-06-17 07:42:24 51°15.024 2°54.702 16.3791 4.319152 33.818418 -3.020363
2011-06-17 07:42:28 51°15.036 2°54.692 16.3694 4.325686 33.886634 -3.020363
2011-06-17 07:42:35 51°15.057 2°54.672 16.3938 4.331597 33.948768 -3.020363
2011-06-17 07:42:40 51°15.071 2°54.658 16.3801 4.333153 33.973447 -3.020363
2011-06-17 07:42:45 51°15.086 2°54.644 16.3708 4.337093 34.016994 -3.020363
2011-06-17 07:42:49 51°15.097 2°54.632 16.3567 4.339894 34.050559 -3.020363
2011-06-17 07:42:54 51°15.112 2°54.618 16.3514 4.339894 34.050559 -3.020363
2011-06-17 07:42:59 51°15.126 2°54.604 16.3423 4.341968 34.074999 -3.020363
2011-06-17 07:43:05 51°15.143 2°54.588 16.3527 4.346946 34.127033 -3.020363
2011-06-17 07:43:09 51°15.155 2°54.576 16.3425 4.34539 34.117536 -3.020363
2011-06-17 07:43:14 51°15.169 2°54.563 16.3216 4.344146 34.109383 -3.020363
2011-06-17 07:43:20 51°15.187 2°54.547 16.3136 4.346116 34.132943 -3.020363
2011-06-17 07:43:26 51°15.204 2°54.53 16.3246 4.346116 34.132943 -3.020363
2011-06-17 07:43:30 51°15.216 2°54.52 16.2994 4.346635 34.142364 -3.020363
2011-06-17 07:43:35 51°15.231 2°54.506 16.3 4.346532 34.151188 -3.020363
2011-06-17 07:43:40 51°15.246 2°54.492 16.308 4.346843 34.160184 -3.020363
2011-06-17 07:43:45 51°15.261 2°54.479 16.2871 4.34705 34.168969 -3.020363
2011-06-17 07:43:50 51°15.276 2°54.465 16.2725 4.348502 34.188703 -3.020363
2011-06-17 07:43:55 51°15.291 2°54.451 16.2777 4.348502 34.188703 -3.020363
2011-06-17 07:43:59 51°15.303 2°54.44 16.2631 4.349436 34.203187 -3.020363
2011-06-17 07:44:05 51°15.321 2°54.423 16.2636 4.350888 34.222937 -3.020363
2011-06-17 07:44:10 51°15.336 2°54.409 16.2715 4.350266 34.223743 -3.020363
2011-06-17 07:44:15 51°15.351 2°54.395 16.2624 4.349747 34.224065 -3.020363
2011-06-17 07:44:20 51°15.366 2°54.381 16.2338 4.351199 34.245229 -3.020363
2011-06-17 07:44:25 51°15.381 2°54.367 16.2383 4.351199 34.245229 -3.020363
2011-06-17 07:44:30 51°15.397 2°54.354 16.2304 4.352444 34.263179 -3.020363
2011-06-17 07:44:34 51°15.409 2°54.343 16.2363 4.353585 34.282324 -3.020363
2011-06-17 07:44:40 51°15.427 2°54.326 16.2421 4.353481 34.288411 -3.020363
2011-06-17 07:44:45 51°15.443 2°54.312 16.2371 4.352444 34.282073 -3.020363
2011-06-17 07:44:50 51°15.458 2°54.296 16.2386 4.357319 34.331342 -3.020363
2011-06-17 07:44:54 51°15.469 2°54.283 16.2098 4.357319 34.331342 -3.020363
2011-06-17 07:44:59 51°15.484 2°54.267 16.211 4.3596 34.360582 -3.020363
2011-06-17 07:45:05 51°15.501 2°54.246 16.2117 4.360326 34.373307 -3.020363
2011-06-17 07:45:10 51°15.516 2°54.228 16.1999 4.358874 34.36331 -3.020363
2011-06-17 07:45:14 51°15.527 2°54.214 16.2026 4.358667 34.36429 -3.020363
2011-06-17 07:45:19 51°15.541 2°54.195 16.2059 4.357837 34.356971 -3.020363
2011-06-17 07:45:24 51°15.555 2°54.177 16.2036 4.357837 34.356971 -3.020363
2011-06-17 07:45:30 51°15.571 2°54.154 16.1851 4.357837 34.360483 -3.020363
2011-06-17 07:45:35 51°15.585 2°54.135 16.1837 4.358564 34.373917 -3.020363
2011-06-17 07:45:39 51°15.596 2°54.12 16.1835 4.358978 34.381796 -3.020363
2011-06-17 07:45:45 51°15.613 2°54.097 16.1897 4.360016 34.39869 -3.020363
2011-06-17 07:45:50 51°15.627 2°54.078 16.1777 4.359912 34.401294 -3.020363
2011-06-17 07:45:55 51°15.641 2°54.06 16.1756 4.359912 34.401294 -3.020363
2011-06-17 07:45:59 51°15.652 2°54.046 16.1725 4.359601 34.400658 -3.020363
2011-06-17 07:46:05 51°15.67 2°54.025 16.175 4.360742 34.414957 -3.020363
2011-06-17 07:46:09 51°15.681 2°54.011 16.1753 4.36126 34.425878 -3.020363
2011-06-17 07:46:15 51°15.699 2°53.992 16.1792 4.361053 34.42757 -3.020363
2011-06-17 07:46:19 51°15.711 2°53.979 16.1709 4.360327 34.421862 -3.020363
2011-06-17 07:46:24 51°15.726 2°53.963 16.1829 4.360327 34.421862 -3.020363
2011-06-17 07:46:29 51°15.742 2°53.948 16.1534 4.360638 34.428135 -3.020363
2011-06-17 07:46:34 51°15.757 2°53.933 16.1601 4.360535 34.430039 -3.020363
2011-06-17 07:46:40 51°15.775 2°53.915 16.1532 4.360431 34.431238 -3.020363
2011-06-17 07:46:45 51°15.79 2°53.9 16.1483 4.360016 34.428278 -3.020363
2011-06-17 07:46:50 51°15.805 2°53.884 16.1407 4.359912 34.428772 -3.020363
2011-06-17 07:46:55 51°15.821 2°53.869 16.135 4.359912 34.428772 -3.020363
2011-06-17 07:47:00 51°15.836 2°53.853 16.1162 4.359913 34.431593 -3.020363
2011-06-17 07:47:04 51°15.847 2°53.84 16.1174 4.360431 34.438997 -3.020363
2011-06-17 07:47:08 51°15.859 2°53.827 16.0999 4.360846 34.447603 -3.020363
2011-06-17 07:47:14 51°15.876 2°53.807 16.0932 4.360742 34.450922 -3.020363
2011-06-17 07:47:20 51°15.893 2°53.785 16.0912 4.360639 34.454242 -3.020363
2011-06-17 07:47:24 51°15.905 2°53.771 16.0924 4.360639 34.454242 -3.020363
2011-06-17 07:47:29 51°15.919 2°53.753 16.0824 4.361365 34.468432 -3.020363
2011-06-17 07:47:35 51°15.935 2°53.73 16.0772 4.362506 34.486298 -3.020363
2011-06-17 07:47:41 51°15.952 2°53.708 16.0686 4.362921 34.498458 -3.020363
2011-06-17 07:47:45 51°15.963 2°53.694 16.0565 4.363439 34.510834 -3.020363
2011-06-17 07:47:50 51°15.977 2°53.675 16.0489 4.364062 34.524842 -3.020363
2011-06-17 07:47:55 51°15.991 2°53.657 16.0594 4.364062 34.524842 -3.020363
2011-06-17 07:48:00 51°16.005 2°53.638 16.0421 4.364166 34.532139 -3.020363
2011-06-17 07:48:05 51°16.019 2°53.62 16.0408 4.363751 34.532011 -3.020363
2011-06-17 07:48:09 51°16.03 2°53.606 16.0353 4.364166 34.542068 -3.020363
2011-06-17 07:48:14 51°16.044 2°53.589 16.0397 4.364788 34.554676 -3.020363
2011-06-17 07:48:19 51°16.058 2°53.571 16.0374 4.364581 34.561358 -3.020363
2011-06-17 07:48:25 51°16.076 2°53.551 16.0145 4.364581 34.561358 -3.020363
2011-06-17 07:48:29 51°16.088 2°53.538 16.0381 4.364062 34.561734 -3.020363
2011-06-17 07:48:35 51°16.105 2°53.519 16.0216 4.363648 34.562319 -3.020363
2011-06-17 07:48:40 51°16.12 2°53.504 16.0211 4.36427 34.575652 -3.020363
2011-06-17 07:48:45 51°16.135 2°53.487 16.0292 4.363648 34.572978 -3.020363
2011-06-17 07:48:50 51°16.15 2°53.472 16.0175 4.363337 34.573063 -3.020363
2011-06-17 07:48:55 51°16.165 2°53.455 16.0234 4.363337 34.573063 -3.020363
2011-06-17 07:49:00 51°16.18 2°53.439 16.0311 4.363752 34.582431 -3.020363
2011-06-17 07:49:05 51°16.194 2°53.423 16.0287 4.363855 34.58833 -3.020363
2011-06-17 07:49:10 51°16.209 2°53.407 16.0234 4.363233 34.584945 -3.020363
2011-06-17 07:49:15 51°16.224 2°53.391 16.0274 4.363233 34.584945 -3.020363
2011-06-17 07:49:20 51°16.238 2°53.374 16.0255 4.36313 34.584737 -3.020363
2011-06-17 07:49:25 51°16.252 2°53.356 16.0277 4.36313 34.584737 -3.020363
2011-06-17 07:49:30 51°16.266 2°53.339 16.0439 4.363544 34.590552 -3.020363
2011-06-17 07:49:34 51°16.278 2°53.324 16.0472 4.362818 34.584112 -3.020363
2011-06-17 07:49:40 51°16.294 2°53.302 16.0413 4.362818 34.584112 -3.020363
2011-06-17 07:49:45 51°16.308 2°53.284 16.048 4.362922 34.585032 -3.020363
2011-06-17 07:49:49 51°16.319 2°53.269 16.0611 4.363026 34.585952 -3.020363
2011-06-17 07:49:54 51°16.333 2°53.25 16.0741 4.363026 34.585952 -3.020363
2011-06-17 07:50:00 51°16.349 2°53.228 16.0865 4.363026 34.586663 -3.020363
2011-06-17 07:50:05 51°16.363 2°53.21 16.0997 4.363752 34.59168 -3.020363
2011-06-17 07:50:10 51°16.377 2°53.193 16.1097 4.363544 34.584859 -3.020363
2011-06-17 07:50:15 51°16.392 2°53.177 16.1235 4.364374 34.588661 -3.020363
2011-06-17 07:50:19 51°16.404 2°53.164 16.149 4.363648 34.577955 -3.020363
2011-06-17 07:50:25 51°16.422 2°53.146 16.1454 4.363648 34.577955 -3.020363
2011-06-17 07:50:30 51°16.437 2°53.132 16.1509 4.365515 34.588108 -3.020363
2011-06-17 07:50:35 51°16.452 2°53.118 16.1617 4.365307 34.576317 -3.020363
2011-06-17 07:50:39 51°16.465 2°53.108 16.1726 4.365203 34.566162 -3.020363
2011-06-17 07:50:44 51°16.48 2°53.094 16.1809 4.36624 34.56328 -3.020363
2011-06-17 07:50:50 51°16.499 2°53.079 16.1841 4.366032 34.54867 -3.020363
2011-06-17 07:50:55 51°16.515 2°53.067 16.1932 4.366032 34.54867 -3.020363
2011-06-17 07:50:59 51°16.527 2°53.057 16.1959 4.365929 34.535699 -3.020363
2011-06-17 07:51:04 51°16.543 2°53.044 16.1906 4.366343 34.529451 -3.020363
2011-06-17 07:51:09 51°16.559 2°53.031 16.1943 4.366239 34.517204 -3.020363
2011-06-17 07:51:15 51°16.577 2°53.016 16.2113 4.367276 34.516471 -3.020363
2011-06-17 07:51:19 51°16.589 2°53.005 16.1931 4.368832 34.522446 -3.020363
2011-06-17 07:51:24 51°16.605 2°52.991 16.197 4.368832 34.522446 -3.020363
2011-06-17 07:51:30 51°16.623 2°52.974 16.1977 4.369454 34.522289 -3.020363
2011-06-17 07:51:35 51°16.638 2°52.96 16.1892 4.368313 34.505839 -3.020363
2011-06-17 07:51:39 51°16.65 2°52.949 16.1726 4.370906 34.524516 -3.020363
2011-06-17 07:51:44 51°16.665 2°52.934 16.1678 4.371632 34.527398 -3.020363
2011-06-17 07:51:49 51°16.68 2°52.918 16.1642 4.371943 34.525905 -3.020363
2011-06-17 07:51:54 51°16.694 2°52.904 16.1685 4.371943 34.525905 -3.020363
2011-06-17 07:52:00 51°16.712 2°52.886 16.1524 4.372772 34.533238 -3.020363
2011-06-17 07:52:05 51°16.727 2°52.871 16.1352 4.372046 34.526822 -3.020363
2011-06-17 07:52:10 51°16.741 2°52.856 16.1292 4.372876 34.535569 -3.020363
2011-06-17 07:52:15 51°16.755 2°52.841 16.1225 4.37381 34.548772 -3.020363
2011-06-17 07:52:20 51°16.77 2°52.826 16.1113 4.375469 34.571231 -3.020363
2011-06-17 07:52:24 51°16.781 2°52.814 16.0897 4.375469 34.571231 -3.020363
2011-06-17 07:52:30 51°16.799 2°52.797 16.1084 4.375262 34.572938 -3.020363
2011-06-17 07:52:35 51°16.813 2°52.782 16.0833 4.375366 34.578106 -3.020363
2011-06-17 07:52:40 51°16.827 2°52.767 16.0832 4.375988 34.592118 -3.020363
2011-06-17 07:52:44 51°16.838 2°52.755 16.0724 4.376403 34.607849 -3.020363
2011-06-17 07:52:50 51°16.855 2°52.738 16.0662 4.376196 34.613821 -3.020363
2011-06-17 07:52:55 51°16.869 2°52.723 16.0595 4.376196 34.613821 -3.020363
2011-06-17 07:53:00 51°16.883 2°52.708 16.0545 4.376403 34.626312 -3.020363
2011-06-17 07:53:04 51°16.895 2°52.696 16.0577 4.375366 34.624945 -3.020363
2011-06-17 07:53:10 51°16.912 2°52.678 16.0503 4.374952 34.626246 -3.020363
2011-06-17 07:53:15 51°16.926 2°52.663 16.0544 4.374433 34.630184 -3.020363
2011-06-17 07:53:20 51°16.94 2°52.649 16.0497 4.3735 34.629025 -3.020363
2011-06-17 07:53:25 51°16.955 2°52.634 16.045 4.3735 34.629025 -3.020363
2011-06-17 07:53:29 51°16.966 2°52.622 16.0399 4.374641 34.647675 -3.020363
2011-06-17 07:53:35 51°16.983 2°52.604 16.0447 4.373915 34.647647 -3.020363
2011-06-17 07:53:40 51°16.998 2°52.59 16.05 4.373396 34.64661 -3.020363
2011-06-17 07:53:45 51°17.013 2°52.578 16.0362 4.373397 34.650171 -3.020363
2011-06-17 07:53:49 51°17.025 2°52.568 16.0342 4.373189 34.653318 -3.020363
2011-06-17 07:53:55 51°17.044 2°52.553 16.0477 4.373189 34.653318 -3.020363
2011-06-17 07:54:00 51°17.059 2°52.543 16.0394 4.372878 34.653409 -3.020363
2011-06-17 07:54:05 51°17.074 2°52.532 16.0351 4.372671 34.653706 -3.020363
2011-06-17 07:54:10 51°17.09 2°52.522 16.0536 4.372048 34.6489 -3.020363
2011-06-17 07:54:15 51°17.106 2°52.511 16.0471 4.371426 34.64338 -3.020363
2011-06-17 07:54:20 51°17.121 2°52.501 16.0498 4.371737 34.64899 -3.020363
2011-06-17 07:54:25 51°17.137 2°52.491 16.0315 4.371737 34.64899 -3.020363
2011-06-17 07:54:30 51°17.152 2°52.481 16.0489 4.371737 34.650415 -3.020363
2011-06-17 07:54:35 51°17.168 2°52.469 16.0351 4.371115 34.645608 -3.020363
2011-06-17 07:54:40 51°17.183 2°52.457 16.0363 4.371426 34.64908 -3.020363
2011-06-17 07:54:45 51°17.199 2°52.445 16.0438 4.370597 34.641008 -3.020363
2011-06-17 07:54:50 51°17.214 2°52.433 16.028 4.370182 34.636615 -3.020363
2011-06-17 07:54:55 51°17.229 2°52.42 16.0261 4.370182 34.636615 -3.020363
2011-06-17 07:55:00 51°17.244 2°52.407 16.0359 4.370804 34.642848 -3.020363
2011-06-17 07:55:05 51°17.259 2°52.393 16.0414 4.371115 34.648458 -3.020363
2011-06-17 07:55:09 51°17.271 2°52.382 16.0263 4.371426 34.653357 -3.020363
2011-06-17 07:55:15 51°17.288 2°52.365 16.0238 4.371219 34.652942 -3.020363
2011-06-17 07:55:20 51°17.303 2°52.351 16.0199 4.371012 34.650389 -3.020363
2011-06-17 07:55:25 51°17.317 2°52.336 16.0389 4.371012 34.650389 -3.020363
2011-06-17 07:55:29 51°17.329 2°52.325 16.0248 4.371115 34.653448 -3.020363
2011-06-17 07:55:35 51°17.347 2°52.308 16.0236 4.369974 34.643326 -3.020363
2011-06-17 07:55:40 51°17.361 2°52.294 16.0188 4.371219 34.654368 -3.020363
2011-06-17 07:55:45 51°17.376 2°52.28 16.0288 4.372049 34.663869 -3.020363
2011-06-17 07:55:49 51°17.388 2°52.269 16.0302 4.372464 34.671831 -3.020363
2011-06-17 07:55:55 51°17.406 2°52.253 16.0323 4.372464 34.671831 -3.020363
2011-06-17 07:56:00 51°17.421 2°52.239 16.0249 4.372464 34.671831 -3.020363
2011-06-17 07:56:05 51°17.436 2°52.225 16.0254 4.371219 34.660072 -3.020363
2011-06-17 07:56:09 51°17.448 2°52.214 16.0205 4.370804 34.65853 -3.020363
2011-06-17 07:56:15 51°17.466 2°52.198 16.0197 4.371841 34.669162 -3.020363
2011-06-17 07:56:20 51°17.481 2°52.185 16.0315 4.371115 34.662005 -3.020363
2011-06-17 07:56:25 51°17.496 2°52.172 16.0203 4.371115 34.662005 -3.020363
2011-06-17 07:56:29 51°17.508 2°52.161 16.0306 4.370493 34.654343 -3.020363
2011-06-17 07:56:35 51°17.526 2°52.146 16.0341 4.371012 34.658945 -3.020363
2011-06-17 07:56:40 51°17.541 2°52.134 16.0241 4.370908 34.659451 -3.020363
2011-06-17 07:56:45 51°17.556 2°52.123 16.0298 4.37153 34.667114 -3.020363
2011-06-17 07:56:49 51°17.569 2°52.114 16.0317 4.371219 34.664352 -3.020363
2011-06-17 07:56:55 51°17.587 2°52.1 16.0176 4.371219 34.664352 -3.020363
2011-06-17 07:57:00 51°17.603 2°52.089 16.0195 4.370908 34.660877 -3.020363
2011-06-17 07:57:05 51°17.618 2°52.078 16.0199 4.369871 34.649534 -3.020363
2011-06-17 07:57:10 51°17.634 2°52.067 16.0136 4.370078 34.649948 -3.020363
2011-06-17 07:57:15 51°17.649 2°52.055 16.0327 4.370286 34.652502 -3.020363
2011-06-17 07:57:20 51°17.664 2°52.043 16.0153 4.370493 34.65363 -3.020363
2011-06-17 07:57:25 51°17.679 2°52.03 16.0187 4.370493 34.65363 -3.020363
2011-06-17 07:57:30 51°17.694 2°52.017 16.0119 4.369663 34.648406 -3.020363
2011-06-17 07:57:35 51°17.709 2°52.004 16.0115 4.371115 34.664858 -3.020363
2011-06-17 07:57:40 51°17.724 2°51.992 16.0152 4.370182 34.658 -3.020363
2011-06-17 07:57:45 51°17.739 2°51.979 16.0166 4.369871 34.655952 -3.020363
2011-06-17 07:57:49 51°17.751 2°51.97 16.0128 4.370389 34.659841 -3.020363
2011-06-17 07:57:55 51°17.769 2°51.954 16.0105 4.370389 34.659841 -3.020363
2011-06-17 07:58:00 51°17.783 2°51.941 16.0119 4.367589 34.636414 -3.020363
2011-06-17 07:58:05 51°17.798 2°51.928 16.0061 4.371219 34.669346 -3.020363
2011-06-17 07:58:09 51°17.81 2°51.918 16.0035 4.370804 34.668518 -3.020363
2011-06-17 07:58:15 51°17.827 2°51.902 16.0107 4.37039 34.663408 -3.020363
2011-06-17 07:58:20 51°17.842 2°51.889 16.0058 4.371012 34.668932 -3.020363
2011-06-17 07:58:25 51°17.857 2°51.876 16.0007 4.371012 34.668932 -3.020363
2011-06-17 07:58:29 51°17.869 2°51.867 16.0052 4.370182 34.662281 -3.020363
2011-06-17 07:58:35 51°17.887 2°51.852 16.0064 4.370908 34.669439 -3.020363
2011-06-17 07:58:40 51°17.903 2°51.84 16.0027 4.37039 34.668404 -3.020363
2011-06-17 07:58:45 51°17.918 2°51.829 16.0166 4.369871 34.665227 -3.020363
2011-06-17 07:58:49 51°17.931 2°51.821 16.0008 4.370597 34.671673 -3.020363
2011-06-17 07:58:55 51°17.949 2°51.808 15.9936 4.370597 34.671673 -3.020363
2011-06-17 07:59:00 51°17.965 2°51.797 15.9976 4.37039 34.670545 -3.020363
2011-06-17 07:59:05 51°17.98 2°51.787 15.9979 4.370286 34.671052 -3.020363
2011-06-17 07:59:09 51°17.993 2°51.779 15.9894 4.368212 34.652636 -3.020363
2011-06-17 07:59:15 51°18.012 2°51.766 15.9987 4.369041 34.660716 -3.020363
2011-06-17 07:59:20 51°18.027 2°51.755 15.9976 4.370079 34.669924 -3.020363
2011-06-17 07:59:25 51°18.043 2°51.743 15.9954 4.370079 34.669924 -3.020363
2011-06-17 07:59:30 51°18.058 2°51.731 15.9952 4.37039 34.674829 -3.020363
2011-06-17 07:59:35 51°18.073 2°51.719 15.9882 4.369456 34.669396 -3.020363
2011-06-17 07:59:40 51°18.089 2°51.707 15.9923 4.369664 34.672666 -3.020363
2011-06-17 07:59:45 51°18.104 2°51.695 15.9939 4.369768 34.675015 -3.020363
2011-06-17 07:59:50 51°18.119 2°51.682 15.9899 4.36956 34.673173 -3.020363
2011-06-17 07:59:55 51°18.135 2°51.67 15.9945 4.36956 34.673173 -3.020363
2011-06-17 08:00:00 51°18.15 2°51.657 15.9983 4.368627 34.664884 -3.020363
2011-06-17 08:00:05 51°18.165 2°51.645 15.9897 4.368419 34.663756 -3.020363
2011-06-17 08:00:09 51°18.177 2°51.634 15.9868 4.368938 34.669789 -3.020363
2011-06-17 08:00:15 51°18.195 2°51.618 15.9945 4.368834 34.67101 -3.020363
2011-06-17 08:00:20 51°18.21 2°51.605 15.9932 4.369249 34.675409 -3.020363
2011-06-17 08:00:25 51°18.226 2°51.592 15.9943 4.369249 34.675409 -3.020363
2011-06-17 08:00:29 51°18.238 2°51.582 15.9944 4.367175 34.656986 -3.020363
2011-06-17 08:00:35 51°18.256 2°51.567 15.9949 4.368834 34.670296 -3.020363
2011-06-17 08:00:40 51°18.272 2°51.554 15.9981 4.367382 34.658115 -3.020363
2011-06-17 08:00:45 51°18.287 2°51.541 15.9912 4.368938 34.67336 -3.020363
2011-06-17 08:00:49 51°18.3 2°51.531 15.9919 4.368005 34.665069 -3.020363
2011-06-17 08:00:55 51°18.318 2°51.517 15.9985 4.368005 34.665069 -3.020363
2011-06-17 08:01:00 51°18.334 2°51.505 15.9949 4.36759 34.660671 -3.020363
2011-06-17 08:01:05 51°18.349 2°51.493 15.9962 4.368108 34.665277 -3.020363
2011-06-17 08:01:09 51°18.362 2°51.484 15.9889 4.368212 34.665484 -3.020363
2011-06-17 08:01:15 51°18.381 2°51.471 15.9932 4.368316 34.665691 -3.020363
2011-06-17 08:01:20 51°18.396 2°51.46 16.0001 4.368523 34.667533 -3.020363
2011-06-17 08:01:25 51°18.412 2°51.449 16.0021 4.368523 34.667533 -3.020363
2011-06-17 08:01:29 51°18.424 2°51.44 16.0002 4.367901 34.661292 -3.020363
2011-06-17 08:01:35 51°18.443 2°51.426 15.9995 4.368834 34.668868 -3.020363
2011-06-17 08:01:40 51°18.459 2°51.416 16.0056 4.368834 34.668868 -3.020363
2011-06-17 08:01:45 51°18.474 2°51.404 15.9984 4.368108 34.663134 -3.020363
2011-06-17 08:01:50 51°18.49 2°51.393 15.9996 4.368005 34.662213 -3.020363
2011-06-17 08:01:55 51°18.506 2°51.382 15.9975 4.368005 34.662213 -3.020363
2011-06-17 08:02:00 51°18.521 2°51.371 16.0042 4.369042 34.669996 -3.020363
2011-06-17 08:02:05 51°18.537 2°51.36 16.0064 4.368004 34.659358 -3.020363
2011-06-17 08:02:10 51°18.553 2°51.348 15.9977 4.369249 34.669696 -3.020363
2011-06-17 08:02:15 51°18.568 2°51.337 16.0024 4.36956 34.671745 -3.020363
2011-06-17 08:02:20 51°18.584 2°51.325 15.9999 4.369664 34.67338 -3.020363
2011-06-17 08:02:25 51°18.599 2°51.314 15.9991 4.369664 34.67338 -3.020363
2011-06-17 08:02:29 51°18.612 2°51.304 15.999 4.369353 34.670617 -3.020363
2011-06-17 08:02:35 51°18.63 2°51.29 15.9977 4.369249 34.669696 -3.020363
2011-06-17 08:02:40 51°18.646 2°51.278 15.9997 4.368316 34.659979 -3.020363
2011-06-17 08:02:45 51°18.661 2°51.266 16 4.370079 34.675636 -3.020363
2011-06-17 08:02:49 51°18.674 2°51.256 15.9969 4.370079 34.674922 -3.020363
2011-06-17 08:02:55 51°18.692 2°51.241 16.0001 4.370079 34.674922 -3.020363
2011-06-17 08:03:00 51°18.708 2°51.229 16.0008 4.370079 34.675636 -3.020363
2011-06-17 08:03:05 51°18.723 2°51.216 16.0004 4.37039 34.679114 -3.020363
2011-06-17 08:03:09 51°18.735 2°51.206 15.9979 4.367901 34.657723 -3.020363
2011-06-17 08:03:15 51°18.753 2°51.191 15.9986 4.369353 34.670617 -3.020363
2011-06-17 08:03:20 51°18.768 2°51.179 15.9977 4.366967 34.648721 -3.020363
2011-06-17 08:03:25 51°18.784 2°51.166 16.0019 4.366967 34.648721 -3.020363
2011-06-17 08:03:30 51°18.799 2°51.153 16.0019 4.369249 34.668982 -3.020363
2011-06-17 08:03:35 51°18.814 2°51.141 16.0024 4.370286 34.678192 -3.020363
2011-06-17 08:03:40 51°18.83 2°51.128 15.9987 4.367278 34.651483 -3.020363
2011-06-17 08:03:45 51°18.845 2°51.115 16.0026 4.370805 34.682798 -3.020363
2011-06-17 08:03:50 51°18.861 2°51.103 16.0023 4.371116 34.686275 -3.020363
2011-06-17 08:03:55 51°18.876 2°51.09 15.9994 4.371116 34.686275 -3.020363
2011-06-17 08:04:00 51°18.891 2°51.078 15.9978 4.369353 34.669903 -3.020363
2011-06-17 08:04:05 51°18.906 2°51.065 15.9985 4.37039 34.678399 -3.020363
2011-06-17 08:04:10 51°18.921 2°51.051 15.999 4.371012 34.683926 -3.020363
2011-06-17 08:04:15 51°18.937 2°51.038 15.9995 4.370494 34.67932 -3.020363
2011-06-17 08:04:20 51°18.952 2°51.024 16.0069 4.369871 34.673794 -3.020363
2011-06-17 08:04:25 51°18.967 2°51.011 16.003 4.369871 34.673794 -3.020363
2011-06-17 08:04:30 51°18.982 2°50.998 16.0072 4.368627 34.662742 -3.020363
2011-06-17 08:04:35 51°18.997 2°50.984 16.0002 4.369456 34.670824 -3.020363
2011-06-17 08:04:40 51°19.012 2°50.97 16.0024 4.370701 34.682591 -3.020363
2011-06-17 08:04:45 51°19.027 2°50.956 15.998 4.370597 34.680956 -3.020363
2011-06-17 08:04:49 51°19.039 2°50.946 16.0045 4.368419 34.6609 -3.020363
2011-06-17 08:04:55 51°19.058 2°50.93 15.9995 4.368419 34.6609 -3.020363
2011-06-17 08:05:00 51°19.073 2°50.917 15.9948 4.371116 34.684132 -3.020363
2011-06-17 08:05:05 51°19.089 2°50.905 15.9963 4.371531 34.687102 -3.020363
2011-06-17 08:05:10 51°19.104 2°50.892 15.9982 4.369456 34.667968 -3.020363
2011-06-17 08:05:15 51°19.119 2°50.88 15.998 4.36956 34.668889 -3.020363
2011-06-17 08:05:20 51°19.134 2°50.868 15.9908 4.370597 34.678813 -3.020363
2011-06-17 08:05:25 51°19.15 2°50.856 16.0016 4.370597 34.678813 -3.020363
2011-06-17 08:05:29 51°19.162 2°50.846 15.9915 4.369768 34.672159 -3.020363
2011-06-17 08:05:35 51°19.181 2°50.832 15.995 4.371634 34.689452 -3.020363
2011-06-17 08:05:40 51°19.196 2°50.82 16.0011 4.371634 34.691596 -3.020363
2011-06-17 08:05:45 51°19.212 2°50.808 15.9999 4.371427 34.690468 -3.020363
2011-06-17 08:05:50 51°19.227 2°50.796 15.992 4.371012 34.687498 -3.020363
2011-06-17 08:05:55 51°19.243 2°50.783 15.9955 4.371012 34.687498 -3.020363
2011-06-17 08:06:00 51°19.258 2°50.77 15.9866 4.368627 34.666312 -3.020363
2011-06-17 08:06:05 51°19.273 2°50.757 15.9904 4.365412 34.63776 -3.020363
2011-06-17 08:06:10 51°19.289 2°50.744 15.9901 4.36873 34.667233 -3.020363
2011-06-17 08:06:15 51°19.304 2°50.731 15.9889 4.367797 34.658943 -3.020363
2011-06-17 08:06:20 51°19.319 2°50.717 15.9862 4.370701 34.686163 -3.020363
2011-06-17 08:06:25 51°19.334 2°50.703 15.9887 4.370701 34.686163 -3.020363
2011-06-17 08:06:30 51°19.35 2°50.69 15.9833 4.368108 34.663848 -3.020363
2011-06-17 08:06:35 51°19.365 2°50.677 15.9868 4.370597 34.687385 -3.020363
2011-06-17 08:06:40 51°19.38 2°50.664 15.9862 4.370805 34.690657 -3.020363
2011-06-17 08:06:45 51°19.395 2°50.652 15.9898 4.370805 34.690657 -3.020363
2011-06-17 08:06:50 51°19.411 2°50.639 15.9865 4.370805 34.691372 -3.020363
2011-06-17 08:06:55 51°19.426 2°50.626 15.9818 4.370805 34.691372 -3.020363
2011-06-17 08:07:00 51°19.441 2°50.613 15.9895 4.371116 34.69485 -3.020363
2011-06-17 08:07:05 51°19.457 2°50.601 15.9792 4.37122 34.696487 -3.020363
2011-06-17 08:07:09 51°19.469 2°50.591 15.9816 4.367071 34.661063 -3.020363
2011-06-17 08:07:15 51°19.488 2°50.575 15.9915 4.371012 34.695359 -3.020363
2011-06-17 08:07:20 51°19.503 2°50.563 15.9863 4.370701 34.692594 -3.020363
2011-06-17 08:07:25 51°19.519 2°50.55 15.9784 4.370701 34.692594 -3.020363
2011-06-17 08:07:29 51°19.531 2°50.541 15.9774 4.371012 34.696073 -3.020363
2011-06-17 08:07:35 51°19.55 2°50.526 15.9748 4.370909 34.696582 -3.020363
2011-06-17 08:07:40 51°19.565 2°50.514 15.9765 4.370805 34.696375 -3.020363
2011-06-17 08:07:45 51°19.581 2°50.502 15.9758 4.370701 34.696884 -3.020363
2011-06-17 08:07:50 51°19.596 2°50.491 15.9724 4.369457 34.684397 -3.020363
2011-06-17 08:07:55 51°19.612 2°50.479 15.9755 4.369457 34.684397 -3.020363
2011-06-17 08:08:00 51°19.628 2°50.467 15.9721 4.369871 34.688797 -3.020363
2011-06-17 08:08:05 51°19.644 2°50.454 15.9702 4.369664 34.688384 -3.020363
2011-06-17 08:08:09 51°19.656 2°50.444 15.9739 4.370701 34.699744 -3.020363
2011-06-17 08:08:15 51°19.675 2°50.429 15.9725 4.370079 34.694929 -3.020363
2011-06-17 08:08:20 51°19.69 2°50.415 15.9687 4.369664 34.691958 -3.020363
2011-06-17 08:08:25 51°19.706 2°50.402 15.9669 4.369664 34.691958 -3.020363
2011-06-17 08:08:29 51°19.718 2°50.392 15.9696 4.370286 34.698203 -3.020363
2011-06-17 08:08:35 51°19.737 2°50.376 15.9756 4.36842 34.683044 -3.020363
2011-06-17 08:08:40 51°19.752 2°50.363 15.9685 4.369975 34.698298 -3.020363
2011-06-17 08:08:45 51°19.768 2°50.35 15.9702 4.369768 34.696455 -3.020363
2011-06-17 08:08:50 51°19.783 2°50.336 15.9729 4.369872 34.697377 -3.020363
2011-06-17 08:08:55 51°19.799 2°50.322 15.9729 4.369872 34.697377 -3.020363
2011-06-17 08:09:00 51°19.814 2°50.309 15.9727 4.368316 34.684267 -3.020363
2011-06-17 08:09:05 51°19.829 2°50.295 15.9689 4.369353 34.694199 -3.020363
2011-06-17 08:09:09 51°19.842 2°50.284 15.9721 4.368938 34.690512 -3.020363
2011-06-17 08:09:15 51°19.86 2°50.268 15.9745 4.368627 34.687747 -3.020363
2011-06-17 08:09:20 51°19.876 2°50.255 15.9705 4.364375 34.649962 -3.020363
2011-06-17 08:09:25 51°19.891 2°50.241 15.9727 4.364375 34.649962 -3.020363
2011-06-17 08:09:29 51°19.904 2°50.231 15.9709 4.367797 34.680374 -3.020363
2011-06-17 08:09:35 51°19.922 2°50.215 15.973 4.365101 34.656413 -3.020363
2011-06-17 08:09:40 51°19.938 2°50.202 15.976 4.365308 34.658256 -3.020363
2011-06-17 08:09:45 51°19.953 2°50.189 15.9747 4.364686 34.653441 -3.020363
2011-06-17 08:09:50 51°19.969 2°50.177 15.9738 4.362819 34.63614 -3.020363
2011-06-17 08:09:55 51°19.984 2°50.164 15.976 4.362819 34.63614 -3.020363
2011-06-17 08:10:00 51°20 2°50.152 15.9728 4.363338 34.640034 -3.020363
2011-06-17 08:10:05 51°20.016 2°50.141 15.9771 4.362197 34.630612 -3.020363
2011-06-17 08:10:09 51°20.028 2°50.131 15.9754 4.362716 34.634505 -3.020363
2011-06-17 08:10:15 51°20.046 2°50.117 15.9815 4.359812 34.607994 -3.020363
2011-06-17 08:10:20 51°20.062 2°50.106 15.9816 4.361678 34.623864 -3.020363
2011-06-17 08:10:25 51°20.077 2°50.094 15.9769 4.361678 34.623864 -3.020363
2011-06-17 08:10:29 51°20.089 2°50.085 15.9782 4.36199 34.625914 -3.020363
2011-06-17 08:10:35 51°20.106 2°50.07 15.9794 4.362093 34.626836 -3.020363
2011-06-17 08:10:40 51°20.12 2°50.058 15.981 4.359189 34.600327 -3.020363
2011-06-17 08:10:45 51°20.133 2°50.047 15.9825 4.358775 34.595929 -3.020363
2011-06-17 08:10:49 51°20.143 2°50.037 15.9822 4.358775 34.595216 -3.020363
2011-06-17 08:10:55 51°20.158 2°50.023 15.9858 4.358775 34.595216 -3.020363
2011-06-17 08:11:00 51°20.171 2°50.011 15.9868 4.357634 34.583659 -3.020363
2011-06-17 08:11:05 51°20.183 2°50 15.9883 4.359086 34.597267 -3.020363
2011-06-17 08:11:10 51°20.195 2°49.988 15.99 4.355974 34.568922 -3.020363
2011-06-17 08:11:15 51°20.206 2°49.977 15.9915 4.3567 34.575369 -3.020363
2011-06-17 08:11:20 51°20.218 2°49.965 15.9942 4.355871 34.566576 -3.020363
2011-06-17 08:11:25 51°20.229 2°49.953 15.9933 4.355871 34.566576 -3.020363
2011-06-17 08:11:29 51°20.238 2°49.944 16.0019 4.354004 34.549288 -3.020363
2011-06-17 08:11:35 51°20.252 2°49.931 16.0046 4.35556 34.562389 -3.020363
2011-06-17 08:11:40 51°20.263 2°49.92 16.008 4.354937 34.55544 -3.020363
2011-06-17 08:11:45 51°20.274 2°49.909 16.0107 4.356078 34.563433 -3.020363
2011-06-17 08:11:49 51°20.284 2°49.901 16.0182 4.353382 34.53807 -3.020363
2011-06-17 08:11:55 51°20.297 2°49.888 16.0223 4.353382 34.53807 -3.020363
2011-06-17 08:12:00 51°20.308 2°49.878 16.028 4.353382 34.535936 -3.020363
2011-06-17 08:12:05 51°20.32 2°49.867 16.0302 4.353589 34.535643 -3.020363
2011-06-17 08:12:09 51°20.328 2°49.859 16.0376 4.353693 34.533718 -3.020363
2011-06-17 08:12:15 51°20.342 2°49.846 16.0413 4.352759 34.521879 -3.020363
2011-06-17 08:12:20 51°20.353 2°49.836 16.0486 4.353692 34.527318 -3.020363
2011-06-17 08:12:25 51°20.364 2°49.825 16.0555 4.353692 34.527318 -3.020363
2011-06-17 08:12:30 51°20.376 2°49.814 16.0634 4.352966 34.515901 -3.020363
2011-06-17 08:12:35 51°20.387 2°49.804 16.0634 4.349233 34.478519 -3.020363
2011-06-17 08:12:40 51°20.398 2°49.794 16.0715 4.350581 34.48551 -3.020363
2011-06-17 08:12:45 51°20.409 2°49.783 16.0765 4.349751 34.473185 -3.020363
2011-06-17 08:12:49 51°20.418 2°49.775 16.0864 4.348507 34.457895 -3.020363
2011-06-17 08:12:55 51°20.432 2°49.763 16.0967 4.348507 34.457895 -3.020363
2011-06-17 08:13:00 51°20.443 2°49.753 16.1002 4.348299 34.449678 -3.020363
2011-06-17 08:13:05 51°20.454 2°49.743 16.1072 4.348714 34.447687 -3.020363
2011-06-17 08:13:09 51°20.463 2°49.735 16.1132 4.34664 34.423641 -3.020363
2011-06-17 08:13:15 51°20.477 2°49.723 16.1237 4.345499 34.407873 -3.020363
2011-06-17 08:13:20 51°20.489 2°49.714 16.1277 4.346536 34.411402 -3.020363
2011-06-17 08:13:25 51°20.5 2°49.704 16.1328 4.346536 34.411402 -3.020363
2011-06-17 08:13:30 51°20.511 2°49.694 16.14 4.34415 34.381795 -3.020363
2011-06-17 08:13:35 51°20.523 2°49.684 16.1441 4.341661 34.351993 -3.020363
2011-06-17 08:13:40 51°20.534 2°49.673 16.1501 4.34415 34.367673 -3.020363
2011-06-17 08:13:45 51°20.545 2°49.663 16.1525 4.342698 34.347769 -3.020363
2011-06-17 08:13:49 51°20.554 2°49.655 16.1586 4.341246 34.328579 -3.020363
2011-06-17 08:13:55 51°20.567 2°49.642 16.1608 4.341246 34.328579 -3.020363
2011-06-17 08:14:00 51°20.577 2°49.631 16.1661 4.340624 34.316735 -3.020363
2011-06-17 08:14:05 51°20.588 2°49.62 16.1678 4.339898 34.303275 -3.020363
2011-06-17 08:14:10 51°20.598 2°49.61 16.1702 4.340001 34.299266 -3.020363
2011-06-17 08:14:15 51°20.609 2°49.599 16.1729 4.338238 34.278757 -3.020363
2011-06-17 08:14:20 51°20.62 2°49.588 16.1779 4.33606 34.253185 -3.020363
2011-06-17 08:14:25 51°20.63 2°49.577 16.1794 4.33606 34.253185 -3.020363
2011-06-17 08:14:29 51°20.638 2°49.567 16.1794 4.33492 34.239594 -3.020363
2011-06-17 08:14:35 51°20.651 2°49.554 16.1823 4.335127 34.237215 -3.020363
2011-06-17 08:14:40 51°20.661 2°49.542 16.1855 4.334401 34.226592 -3.020363
2011-06-17 08:14:45 51°20.671 2°49.531 16.1884 4.335438 34.231544 -3.020363
2011-06-17 08:14:49 51°20.679 2°49.522 16.1911 4.334712 34.220924 -3.020363
2011-06-17 08:14:55 51°20.691 2°49.509 16.1911 4.334712 34.220924 -3.020363
2011-06-17 08:15:00 51°20.702 2°49.497 16.1911 4.337616 34.244464 -3.020363
2011-06-17 08:15:05 51°20.712 2°49.486 16.1945 4.337408 34.240528 -3.020363
2011-06-17 08:15:09 51°20.72 2°49.477 16.1996 4.337304 34.236806 -3.020363
2011-06-17 08:15:15 51°20.732 2°49.463 16.1983 4.337304 34.234702 -3.020363
2011-06-17 08:15:20 51°20.743 2°49.452 16.1975 4.337304 34.231897 -3.020363
2011-06-17 08:15:25 51°20.753 2°49.44 16.1997 4.337304 34.231897 -3.020363
2011-06-17 08:15:30 51°20.763 2°49.43 16.203 4.337304 34.229794 -3.020363
2011-06-17 08:15:35 51°20.773 2°49.418 16.2014 4.337408 34.227906 -3.020363
2011-06-17 08:15:40 51°20.784 2°49.407 16.2003 4.337408 34.226504 -3.020363
2011-06-17 08:15:45 51°20.794 2°49.395 16.2013 4.337304 34.223486 -3.020363
2011-06-17 08:15:50 51°20.804 2°49.384 16.2015 4.337408 34.222299 -3.020363
2011-06-17 08:15:55 51°20.814 2°49.374 16.2013 4.337408 34.222299 -3.020363
2011-06-17 08:16:00 51°20.825 2°49.363 16.2059 4.337512 34.221813 -3.020363
2011-06-17 08:16:05 51°20.835 2°49.352 16.2036 4.337512 34.220412 -3.020363
2011-06-17 08:16:09 51°20.843 2°49.343 16.2077 4.337512 34.219011 -3.020363
2011-06-17 08:16:15 51°20.856 2°49.331 16.2094 4.337719 34.220141 -3.020363
2011-06-17 08:16:20 51°20.867 2°49.32 16.2091 4.337719 34.220141 -3.020363
2011-06-17 08:16:25 51°20.878 2°49.309 16.2148 4.337719 34.220141 -3.020363
2011-06-17 08:16:29 51°20.886 2°49.3 16.2148 4.337926 34.221271 -3.020363
2011-06-17 08:16:35 51°20.9 2°49.288 16.2189 4.337926 34.221271 -3.020363
2011-06-17 08:16:40 51°20.911 2°49.277 16.2212 4.33803 34.220785 -3.020363
2011-06-17 08:16:45 51°20.922 2°49.267 16.2242 4.338134 34.220299 -3.020363
2011-06-17 08:16:49 51°20.932 2°49.258 16.2271 4.338237 34.219813 -3.020363
2011-06-17 08:16:55 51°20.946 2°49.244 16.2301 4.338237 34.219813 -3.020363
2011-06-17 08:17:00 51°20.958 2°49.233 16.2326 4.338237 34.218413 -3.020363
2011-06-17 08:17:05 51°20.971 2°49.221 16.2379 4.338134 34.214697 -3.020363
2011-06-17 08:17:10 51°20.984 2°49.21 16.242 4.33803 34.210981 -3.020363
2011-06-17 08:17:15 51°20.997 2°49.198 16.2439 4.337926 34.207966 -3.020363
2011-06-17 08:17:20 51°21.011 2°49.186 16.2475 4.337719 34.203337 -3.020363
2011-06-17 08:17:25 51°21.024 2°49.174 16.248 4.337719 34.203337 -3.020363
2011-06-17 08:17:30 51°21.038 2°49.161 16.2538 4.337304 34.19688 -3.020363
2011-06-17 08:17:35 51°21.053 2°49.148 16.2537 4.336889 34.190424 -3.020363
2011-06-17 08:17:40 51°21.067 2°49.134 16.2578 4.336267 34.181441 -3.020363
2011-06-17 08:17:45 51°21.082 2°49.121 16.2588 4.335852 34.174288 -3.020363
2011-06-17 08:17:50 51°21.097 2°49.107 16.2612 4.335437 34.167137 -3.020363
2011-06-17 08:17:55 51°21.112 2°49.094 16.2635 4.335437 34.167137 -3.020363
2011-06-17 08:18:00 51°21.128 2°49.082 16.2653 4.334815 34.159557 -3.020363
2011-06-17 08:18:05 51°21.143 2°49.069 16.2684 4.334607 34.154935 -3.020363
2011-06-17 08:18:09 51°21.156 2°49.061 16.2747 4.333985 34.146659 -3.020363
2011-06-17 08:18:15 51°21.175 2°49.047 16.2741 4.333466 34.139298 -3.020363
2011-06-17 08:18:20 51°21.191 2°49.037 16.2765 4.333155 34.133068 -3.020363
2011-06-17 08:18:25 51°21.207 2°49.027 16.2787 4.333155 34.133068 -3.020363
2011-06-17 08:18:29 51°21.22 2°49.019 16.2785 4.332844 34.128234 -3.020363
2011-06-17 08:18:35 51°21.24 2°49.006 16.2808 4.332325 34.120877 -3.020363
2011-06-17 08:18:40 51°21.256 2°48.998 16.2814 4.331911 34.115131 -3.020363
2011-06-17 08:18:45 51°21.272 2°48.988 16.2834 4.331599 34.108906 -3.020363
2011-06-17 08:18:50 51°21.288 2°48.979 16.2876 4.331288 34.103379 -3.020363
2011-06-17 08:18:55 51°21.304 2°48.969 16.2868 4.331288 34.103379 -3.020363
2011-06-17 08:19:00 51°21.321 2°48.96 16.2876 4.330977 34.099246 -3.020363
2011-06-17 08:19:05 51°21.337 2°48.95 16.2906 4.330562 34.093504 -3.020363
2011-06-17 08:19:09 51°21.35 2°48.943 16.2907 4.330148 34.087762 -3.020363
2011-06-17 08:19:15 51°21.369 2°48.931 16.2931 4.32994 34.084544 -3.020363
2011-06-17 08:19:20 51°21.385 2°48.922 16.2937 4.329733 34.081326 -3.020363
2011-06-17 08:19:25 51°21.401 2°48.912 16.295 4.329733 34.081326 -3.020363
2011-06-17 08:19:29 51°21.414 2°48.904 16.2956 4.329733 34.079238 -3.020363
2011-06-17 08:19:35 51°21.434 2°48.892 16.2947 4.329629 34.076933 -3.020363
2011-06-17 08:19:40 51°21.45 2°48.882 16.2956 4.329629 34.075542 -3.020363
2011-06-17 08:19:45 51°21.466 2°48.872 16.2932 4.329629 34.073455 -3.020363
2011-06-17 08:19:49 51°21.48 2°48.864 16.2953 4.329733 34.073672 -3.020363
2011-06-17 08:19:55 51°21.499 2°48.852 16.2944 4.329733 34.073672 -3.020363
2011-06-17 08:20:00 51°21.515 2°48.842 16.2934 4.32994 34.073411 -3.020363
2011-06-17 08:20:05 51°21.531 2°48.83 16.295 4.330147 34.075236 -3.020363
2011-06-17 08:20:10 51°21.547 2°48.818 16.2917 4.330458 34.077279 -3.020363
2011-06-17 08:20:15 51°21.563 2°48.807 16.2913 4.330769 34.079322 -3.020363
2011-06-17 08:20:20 51°21.579 2°48.794 16.2886 4.331184 34.082973 -3.020363
2011-06-17 08:20:25 51°21.595 2°48.783 16.2901 4.331184 34.082973 -3.020363
2011-06-17 08:20:30 51°21.611 2°48.77 16.2863 4.331599 34.085928 -3.020363
2011-06-17 08:20:35 51°21.627 2°48.759 16.2876 4.332014 34.090275 -3.020363
2011-06-17 08:20:40 51°21.643 2°48.747 16.2884 4.332429 34.093926 -3.020363
2011-06-17 08:20:45 51°21.659 2°48.737 16.2845 4.332844 34.097578 -3.020363
2011-06-17 08:20:49 51°21.672 2°48.728 16.2857 4.333466 34.103751 -3.020363
2011-06-17 08:20:55 51°21.692 2°48.715 16.2848 4.333466 34.103751 -3.020363
2011-06-17 08:21:00 51°21.708 2°48.703 16.2861 4.333881 34.108099 -3.020363
2011-06-17 08:21:05 51°21.724 2°48.692 16.2862 4.334295 34.112447 -3.020363
2011-06-17 08:21:09 51°21.737 2°48.684 16.2891 4.334503 34.114969 -3.020363
2011-06-17 08:21:15 51°21.756 2°48.67 16.2902 4.334607 34.116579 -3.020363
2011-06-17 08:21:20 51°21.773 2°48.658 16.2929 4.33471 34.118885 -3.020363
2011-06-17 08:21:25 51°21.789 2°48.646 16.294 4.33471 34.118885 -3.020363
2011-06-17 08:21:30 51°21.805 2°48.635 16.2979 4.334607 34.118668 -3.020363
2011-06-17 08:21:35 51°21.821 2°48.623 16.297 4.334607 34.118668 -3.020363
2011-06-17 08:21:40 51°21.837 2°48.612 16.2936 4.334399 34.116146 -3.020363
2011-06-17 08:21:45 51°21.853 2°48.6 16.2982 4.334295 34.115233 -3.020363
2011-06-17 08:21:50 51°21.87 2°48.59 16.3003 4.334088 34.112014 -3.020363
2011-06-17 08:21:55 51°21.886 2°48.579 16.3026 4.334088 34.112014 -3.020363
2011-06-17 08:22:00 51°21.902 2°48.57 16.3038 4.333777 34.107882 -3.020363
2011-06-17 08:22:05 51°21.919 2°48.56 16.3086 4.333569 34.103968 -3.020363
2011-06-17 08:22:09 51°21.932 2°48.552 16.3108 4.333569 34.102575 -3.020363
2011-06-17 08:22:15 51°21.951 2°48.541 16.3114 4.333466 34.100966 -3.020363
2011-06-17 08:22:20 51°21.967 2°48.532 16.3087 4.333362 34.098661 -3.020363
2011-06-17 08:22:25 51°21.984 2°48.523 16.3058 4.333362 34.098661 -3.020363
2011-06-17 08:22:29 51°21.997 2°48.516 16.2998 4.333258 34.096357 -3.020363
2011-06-17 08:22:35 51°22.017 2°48.506 16.2975 4.333051 34.09314 -3.020363
2011-06-17 08:22:40 51°22.033 2°48.497 16.2924 4.33274 34.087619 -3.020363
2011-06-17 08:22:45 51°22.049 2°48.489 16.2866 4.332532 34.083707 -3.020363
2011-06-17 08:22:49 51°22.062 2°48.482 16.2813 4.332429 34.080708 -3.020363
2011-06-17 08:22:55 51°22.082 2°48.471 16.2788 4.332429 34.080708 -3.020363
2011-06-17 08:23:00 51°22.098 2°48.462 16.2737 4.332532 34.082316 -3.020363
2011-06-17 08:23:05 51°22.114 2°48.452 16.2712 4.332947 34.087357 -3.020363
2011-06-17 08:23:09 51°22.127 2°48.445 16.2687 4.333569 34.09492 -3.020363
2011-06-17 08:23:15 51°22.147 2°48.433 16.2664 4.334192 34.103875 -3.020363
2011-06-17 08:23:20 51°22.163 2°48.422 16.2574 4.334918 34.114442 -3.020363
2011-06-17 08:23:25 51°22.179 2°48.412 16.2584 4.334918 34.114442 -3.020363
2011-06-17 08:23:29 51°22.192 2°48.404 16.2529 4.335436 34.123186 -3.020363
2011-06-17 08:23:35 51°22.211 2°48.391 16.2503 4.335955 34.132629 -3.020363
2011-06-17 08:23:40 51°22.227 2°48.381 16.2454 4.336266 34.138854 -3.020363
2011-06-17 08:23:45 51°22.243 2°48.37 16.2442 4.33637 34.143254 -3.020363
2011-06-17 08:23:49 51°22.256 2°48.361 16.2355 4.33637 34.146741 -3.020363
2011-06-17 08:23:55 51°22.275 2°48.348 16.2314 4.33637 34.146741 -3.020363
2011-06-17 08:24:00 51°22.291 2°48.338 16.2315 4.33637 34.150927 -3.020363
2011-06-17 08:24:05 51°22.307 2°48.328 16.2212 4.336059 34.150977 -3.020363
2011-06-17 08:24:10 51°22.324 2°48.318 16.2129 4.335748 34.152423 -3.020363
2011-06-17 08:24:15 51°22.34 2°48.309 16.202 4.335229 34.150646 -3.020363
2011-06-17 08:24:20 51°22.356 2°48.299 16.1895 4.334503 34.147738 -3.020363
2011-06-17 08:24:25 51°22.372 2°48.29 16.186 4.333778 34.144831 -3.020363
2011-06-17 08:24:30 51°22.388 2°48.281 16.1725 4.333778 34.144831 -3.020363
2011-06-17 08:24:35 51°22.404 2°48.272 16.1718 4.332948 34.142405 -3.020363
2011-06-17 08:24:40 51°22.42 2°48.262 16.1575 4.332015 34.139065 -3.020363
2011-06-17 08:24:45 51°22.436 2°48.252 16.1512 4.330978 34.136206 -3.020363
2011-06-17 08:24:49 51°22.449 2°48.245 16.1472 4.330045 34.137054 -3.020363
2011-06-17 08:24:55 51°22.468 2°48.233 16.1376 4.330045 34.137054 -3.020363
2011-06-17 08:25:00 51°22.483 2°48.223 16.1279 4.329008 34.135592 -3.020363
2011-06-17 08:25:05 51°22.499 2°48.212 16.115 4.327971 34.134828 -3.020363
2011-06-17 08:25:09 51°22.512 2°48.202 16.1129 4.326934 34.134065 -3.020363
2011-06-17 08:25:15 51°22.53 2°48.189 16.0983 4.326104 34.134433 -3.020363
2011-06-17 08:25:20 51°22.545 2°48.177 16.0977 4.325379 34.135717 -3.020363
2011-06-17 08:25:25 51°22.56 2°48.165 16.0921 4.325379 34.135717 -3.020363
2011-06-17 08:25:29 51°22.572 2°48.155 16.0889 4.324757 34.138618 -3.020363
2011-06-17 08:25:35 51°22.59 2°48.14 16.0856 4.324031 34.141304 -3.020363
2011-06-17 08:25:40 51°22.605 2°48.128 16.0875 4.323305 34.146094 -3.020363
2011-06-17 08:25:45 51°22.621 2°48.116 16.0797 4.32289 34.148732 -3.020363
2011-06-17 08:25:49 51°22.633 2°48.109 16.0793 4.322476 34.154174 -3.020363
2011-06-17 08:25:55 51°22.652 2°48.097 16.0803 4.322476 34.154174 -3.020363
2011-06-17 08:26:00 51°22.668 2°48.088 16.0797 4.322061 34.155414 -3.020363
2011-06-17 08:26:05 51°22.684 2°48.079 16.0801 4.321543 34.156439 -3.020363
2011-06-17 08:26:09 51°22.697 2°48.072 16.0778 4.321128 34.156978 -3.020363
2011-06-17 08:26:15 51°22.716 2°48.061 16.0769 4.320817 34.157033 -3.020363
2011-06-17 08:26:20 51°22.732 2°48.053 16.0817 4.320506 34.157087 -3.020363
2011-06-17 08:26:25 51°22.747 2°48.043 16.0734 4.320506 34.157087 -3.020363
2011-06-17 08:26:30 51°22.763 2°48.034 16.0721 4.320091 34.156224 -3.020363
2011-06-17 08:26:35 51°22.779 2°48.024 16.0723 4.319676 34.153959 -3.020363
2011-06-17 08:26:40 51°22.795 2°48.015 16.0759 4.319158 34.150776 -3.020363
2011-06-17 08:26:45 51°22.81 2°48.005 16.0769 4.318743 34.14851 -3.020363
2011-06-17 08:26:49 51°22.823 2°47.997 16.0803 4.318328 34.146244 -3.020363
2011-06-17 08:26:55 51°22.842 2°47.985 16.0808 4.318328 34.146244 -3.020363
2011-06-17 08:27:00 51°22.858 2°47.975 16.0785 4.31781 34.143061 -3.020363
2011-06-17 08:27:05 51°22.873 2°47.964 16.0864 4.317499 34.141712 -3.020363
2011-06-17 08:27:10 51°22.889 2°47.954 16.0871 4.317188 34.140363 -3.020363
2011-06-17 08:27:15 51°22.905 2°47.943 16.0943 4.316876 34.137612 -3.020363
2011-06-17 08:27:20 51°22.92 2°47.933 16.0966 4.316669 34.135076 -3.020363
2011-06-17 08:27:25 51°22.936 2°47.923 16.0995 4.316669 34.135076 -3.020363
2011-06-17 08:27:29 51°22.949 2°47.915 16.1073 4.316358 34.131624 -3.020363
2011-06-17 08:27:35 51°22.968 2°47.903 16.1106 4.316462 34.13184 -3.020363
2011-06-17 08:27:40 51°22.984 2°47.893 16.1124 4.316254 34.127903 -3.020363
2011-06-17 08:27:45 51°23 2°47.883 16.1208 4.31615 34.124182 -3.020363
2011-06-17 08:27:50 51°23.016 2°47.874 16.1275 4.316047 34.119762 -3.020363
2011-06-17 08:27:55 51°23.031 2°47.864 16.1215 4.316047 34.119762 -3.020363
2011-06-17 08:28:00 51°23.047 2°47.855 16.132 4.315943 34.116043 -3.020363
2011-06-17 08:28:05 51°23.064 2°47.844 16.1307 4.315839 34.110924 -3.020363
2011-06-17 08:28:09 51°23.076 2°47.837 16.1315 4.315632 34.10559 -3.020363
2011-06-17 08:28:15 51°23.096 2°47.825 16.1342 4.315632 34.10139 -3.020363
2011-06-17 08:28:20 51°23.112 2°47.815 16.1401 4.315528 34.096275 -3.020363
2011-06-17 08:28:25 51°23.127 2°47.804 16.1458 4.315528 34.096275 -3.020363
2011-06-17 08:28:30 51°23.143 2°47.794 16.1445 4.31532 34.089546 -3.020363
2011-06-17 08:28:35 51°23.159 2°47.783 16.1506 4.315424 34.087665 -3.020363
2011-06-17 08:28:40 51°23.175 2°47.774 16.1513 4.315424 34.084868 -3.020363
2011-06-17 08:28:45 51°23.191 2°47.763 16.1508 4.315424 34.082072 -3.020363
2011-06-17 08:28:50 51°23.207 2°47.753 16.1594 4.315424 34.079276 -3.020363
2011-06-17 08:28:55 51°23.223 2°47.742 16.1564 4.315424 34.079276 -3.020363
2011-06-17 08:29:00 51°23.239 2°47.732 16.159 4.31532 34.074866 -3.020363
2011-06-17 08:29:05 51°23.255 2°47.722 16.157 4.315527 34.073204 -3.020363
2011-06-17 08:29:10 51°23.271 2°47.713 16.1548 4.315527 34.07041 -3.020363
2011-06-17 08:29:15 51°23.287 2°47.703 16.1472 4.315631 34.068532 -3.020363
2011-06-17 08:29:20 51°23.303 2°47.694 16.1402 4.315838 34.068268 -3.020363
2011-06-17 08:29:25 51°23.319 2°47.683 16.1191 4.315838 34.068268 -3.020363
2011-06-17 08:29:29 51°23.332 2°47.676 16.1139 4.315838 34.065475 -3.020363
2011-06-17 08:29:35 51°23.351 2°47.663 16.1 4.315942 34.064994 -3.020363
2011-06-17 08:29:40 51°23.367 2°47.653 16.0819 4.316046 34.064513 -3.020363
2011-06-17 08:29:45 51°23.382 2°47.642 16.0776 4.316253 34.066343 -3.020363
2011-06-17 08:29:49 51°23.395 2°47.633 16.0745 4.316357 34.07075 -3.020363
2011-06-17 08:29:55 51°23.414 2°47.618 16.0587 4.316357 34.07075 -3.020363
2011-06-17 08:30:00 51°23.43 2°47.607 16.0605 4.316357 34.078434 -3.020363
2011-06-17 08:30:05 51°23.446 2°47.595 16.0489 4.316253 34.085904 -3.020363
2011-06-17 08:30:09 51°23.458 2°47.586 16.0472 4.315943 34.095043 -3.020363
2011-06-17 08:30:15 51°23.477 2°47.573 16.0385 4.315839 34.104623 -3.020363
2011-06-17 08:30:20 51°23.493 2°47.561 16.0387 4.315528 34.110275 -3.020363
2011-06-17 08:30:25 51°23.509 2°47.55 16.0328 4.315528 34.110275 -3.020363
2011-06-17 08:30:29 51°23.521 2°47.542 16.03 4.315113 34.114312 -3.020363
2011-06-17 08:30:35 51°23.54 2°47.529 16.0246 4.314802 34.119969 -3.020363
2011-06-17 08:30:40 51°23.556 2°47.518 16.0259 4.314491 34.12563 -3.020363
2011-06-17 08:30:45 51°23.572 2°47.509 16.0286 4.31418 34.126384 -3.020363
2011-06-17 08:30:49 51°23.585 2°47.5 16.0259 4.312625 34.118933 -3.020363
2011-06-17 08:30:55 51°23.604 2°47.488 16.0194 4.312625 34.118933 -3.020363
2011-06-17 08:31:00 51°23.62 2°47.478 16.0316 4.313351 34.128864 -3.020363
2011-06-17 08:31:05 51°23.636 2°47.468 16.0207 4.313144 34.133344 -3.020363
2011-06-17 08:31:09 51°23.649 2°47.46 16.012 4.312625 34.132965 -3.020363
2011-06-17 08:31:15 51°23.668 2°47.447 16.0241 4.312211 34.132101 -3.020363
2011-06-17 08:31:20 51°23.684 2°47.437 16.014 4.311588 34.127997 -3.020363
2011-06-17 08:31:25 51°23.7 2°47.426 16.0171 4.311588 34.127997 -3.020363
2011-06-17 08:31:29 51°23.713 2°47.417 16.0172 4.31107 34.125513 -3.020363
2011-06-17 08:31:35 51°23.732 2°47.405 16.0259 4.310551 34.121624 -3.020363
2011-06-17 08:31:40 51°23.748 2°47.394 16.0253 4.31024 34.120976 -3.020363
2011-06-17 08:31:45 51°23.764 2°47.384 16.0181 4.309929 34.121731 -3.020363
2011-06-17 08:31:49 51°23.777 2°47.374 16.0222 4.309411 34.118544 -3.020363
2011-06-17 08:31:55 51°23.796 2°47.361 16.0249 4.309411 34.118544 -3.020363
2011-06-17 08:32:00 51°23.811 2°47.35 16.0309 4.3091 34.116491 -3.020363
2011-06-17 08:32:05 51°23.827 2°47.338 16.0268 4.308892 34.114655 -3.020363
2011-06-17 08:32:09 51°23.84 2°47.33 16.0298 4.30827 34.107742 -3.020363
2011-06-17 08:32:15 51°23.859 2°47.316 16.0317 4.307959 34.104286 -3.020363
2011-06-17 08:32:20 51°23.875 2°47.306 16.031 4.307855 34.10407 -3.020363
2011-06-17 08:32:25 51°23.891 2°47.295 16.0346 4.307855 34.10407 -3.020363
2011-06-17 08:32:29 51°23.904 2°47.287 16.0424 4.307544 34.101315 -3.020363
2011-06-17 08:32:35 51°23.923 2°47.274 16.0385 4.307233 34.096457 -3.020363
2011-06-17 08:32:40 51°23.939 2°47.264 16.0394 4.306922 34.0923 -3.020363
2011-06-17 08:32:45 51°23.955 2°47.253 16.0498 4.306611 34.087442 -3.020363
2011-06-17 08:32:49 51°23.968 2°47.245 16.0454 4.3063 34.083287 -3.020363
2011-06-17 08:32:55 51°23.987 2°47.232 16.0452 4.3063 34.083287 -3.020363
2011-06-17 08:33:00 51°24.003 2°47.221 16.0481 4.306092 34.080049 -3.020363
2011-06-17 08:33:05 51°24.019 2°47.211 16.0521 4.305366 34.071522 -3.020363
2011-06-17 08:33:09 51°24.032 2°47.202 16.0548 4.305159 34.067585 -3.020363
2011-06-17 08:33:15 51°24.051 2°47.189 16.0525 4.304848 34.063431 -3.020363
2011-06-17 08:33:20 51°24.067 2°47.178 16.0567 4.304744 34.060412 -3.020363
2011-06-17 08:33:25 51°24.082 2°47.166 16.0571 4.304744 34.060412 -3.020363
2011-06-17 08:33:29 51°24.095 2°47.156 16.0615 4.304537 34.057176 -3.020363
2011-06-17 08:33:35 51°24.114 2°47.142 16.063 4.304433 34.054858 -3.020363
2011-06-17 08:33:40 51°24.13 2°47.13 16.0632 4.304329 34.051841 -3.020363
2011-06-17 08:33:45 51°24.145 2°47.118 16.0688 4.304226 34.048823 -3.020363
2011-06-17 08:33:49 51°24.158 2°47.109 16.0706 4.303914 34.043972 -3.020363
2011-06-17 08:33:55 51°24.177 2°47.093 16.0762 4.303914 34.043972 -3.020363
2011-06-17 08:34:00 51°24.192 2°47.081 16.0767 4.303914 34.043272 -3.020363
2011-06-17 08:34:05 51°24.208 2°47.069 16.0817 4.303811 34.040256 -3.020363
2011-06-17 08:34:09 51°24.221 2°47.06 16.0855 4.303292 34.033572 -3.020363
2011-06-17 08:34:15 51°24.239 2°47.045 16.0851 4.302981 34.028722 -3.020363
2011-06-17 08:34:20 51°24.255 2°47.033 16.0887 4.302877 34.025009 -3.020363
2011-06-17 08:34:25 51°24.271 2°47.022 16.0869 4.302877 34.025009 -3.020363
2011-06-17 08:34:29 51°24.283 2°47.012 16.092 4.30267 34.020378 -3.020363
2011-06-17 08:34:35 51°24.303 2°46.999 16.0935 4.302566 34.015967 -3.020363
2011-06-17 08:34:40 51°24.318 2°46.987 16.0993 4.302255 34.010422 -3.020363
2011-06-17 08:34:45 51°24.334 2°46.975 16.0999 4.281412 33.822773 -3.020363
2011-06-17 08:34:49 51°24.346 2°46.966 16.1033 4.30184 34.001168 -3.020363
2011-06-17 08:34:55 51°24.365 2°46.952 16.1021 4.30184 34.001168 -3.020363
2011-06-17 08:35:00 51°24.381 2°46.941 16.1063 4.301529 33.996324 -3.020363
2011-06-17 08:35:05 51°24.397 2°46.93 16.1125 4.30101 33.989648 -3.020363
2011-06-17 08:35:09 51°24.41 2°46.921 16.1192 4.300907 33.98594 -3.020363
2011-06-17 08:35:15 51°24.429 2°46.907 16.1183 4.300596 33.979703 -3.020363
2011-06-17 08:35:20 51°24.445 2°46.896 16.1241 4.300181 33.973946 -3.020363
2011-06-17 08:35:25 51°24.461 2°46.884 16.1257 4.300181 33.973946 -3.020363
2011-06-17 08:35:29 51°24.473 2°46.875 16.124 4.299662 33.967274 -3.020363
2011-06-17 08:35:35 51°24.492 2°46.861 16.1274 4.299351 33.963131 -3.020363
2011-06-17 08:35:40 51°24.508 2°46.849 16.1302 4.298936 33.955983 -3.020363
2011-06-17 08:35:45 51°24.523 2°46.836 16.1334 4.298314 33.947004 -3.020363
2011-06-17 08:35:50 51°24.539 2°46.825 16.136 4.298003 33.940078 -3.020363
2011-06-17 08:35:55 51°24.555 2°46.812 16.1316 4.298003 33.940078 -3.020363
2011-06-17 08:36:00 51°24.57 2°46.8 16.1334 4.297692 33.934546 -3.020363
2011-06-17 08:36:05 51°24.586 2°46.788 16.1316 4.297484 33.929931 -3.020363
2011-06-17 08:36:09 51°24.599 2°46.779 16.1363 4.297173 33.925793 -3.020363
2011-06-17 08:36:15 51°24.618 2°46.764 16.1344 4.296966 33.921179 -3.020363
2011-06-17 08:36:20 51°24.634 2°46.753 16.1336 4.297069 33.920007 -3.020363
2011-06-17 08:36:25 51°24.65 2°46.741 16.1368 4.297069 33.920007 -3.020363
2011-06-17 08:36:29 51°24.662 2°46.733 16.1353 4.297069 33.91792 -3.020363
2011-06-17 08:36:35 51°24.681 2°46.719 16.1322 4.297277 33.919055 -3.020363
2011-06-17 08:36:40 51°24.697 2°46.709 16.136 4.29738 33.919275 -3.020363
2011-06-17 08:36:45 51°24.713 2°46.698 16.1381 4.297484 33.919495 -3.020363
2011-06-17 08:36:49 51°24.726 2°46.689 16.126 4.297484 33.918799 -3.020363
2011-06-17 08:36:55 51°24.745 2°46.676 16.1286 4.297484 33.918799 -3.020363
2011-06-17 08:37:00 51°24.761 2°46.664 16.1218 4.297484 33.918799 -3.020363
2011-06-17 08:37:05 51°24.776 2°46.652 16.1218 4.297484 33.918104 -3.020363
2011-06-17 08:37:10 51°24.792 2°46.64 16.1182 4.297484 33.918104 -3.020363
2011-06-17 08:37:15 51°24.807 2°46.628 16.1139 4.297277 33.916273 -3.020363
2011-06-17 08:37:20 51°24.823 2°46.616 16.1111 4.297277 33.916969 -3.020363
2011-06-17 08:37:25 51°24.838 2°46.604 16.1067 4.297277 33.916969 -3.020363
2011-06-17 08:37:29 51°24.851 2°46.594 16.1036 4.297173 33.917445 -3.020363
2011-06-17 08:37:35 51°24.869 2°46.579 16.1072 4.29147 33.869894 -3.020363
2011-06-17 08:37:40 51°24.885 2°46.567 16.0955 4.296966 33.921179 -3.020363
2011-06-17 08:37:45 51°24.9 2°46.555 16.0946 4.296758 33.921435 -3.020363
2011-06-17 08:37:49 51°24.913 2°46.546 16.0923 4.296655 33.923303 -3.020363
2011-06-17 08:37:55 51°24.932 2°46.532 16.0884 4.296655 33.923303 -3.020363
2011-06-17 08:38:00 51°24.947 2°46.52 16.0867 4.296447 33.924952 -3.020363
2011-06-17 08:38:05 51°24.963 2°46.508 16.0829 4.29624 33.925905 -3.020363
2011-06-17 08:38:09 51°24.976 2°46.499 16.0792 4.295929 33.925247 -3.020363
2011-06-17 08:38:15 51°24.995 2°46.485 16.0791 4.295722 33.926896 -3.020363
2011-06-17 08:38:20 51°25.01 2°46.474 16.074 4.295618 33.930158 -3.020363
2011-06-17 08:38:25 51°25.026 2°46.463 16.0679 4.295618 33.930158 -3.020363
2011-06-17 08:38:29 51°25.039 2°46.455 16.07 4.295411 33.931112 -3.020363
2011-06-17 08:38:35 51°25.058 2°46.441 16.0675 4.295203 33.932066 -3.020363
2011-06-17 08:38:40 51°25.074 2°46.429 16.0668 4.2951 33.933937 -3.020363
2011-06-17 08:38:45 51°25.09 2°46.417 16.0738 4.294892 33.935588 -3.020363
2011-06-17 08:38:49 51°25.102 2°46.409 16.0602 4.294892 33.938376 -3.020363
2011-06-17 08:38:55 51°25.121 2°46.394 16.0628 4.294892 33.938376 -3.020363
2011-06-17 08:39:00 51°25.137 2°46.382 16.0589 4.294789 33.940248 -3.020363
2011-06-17 08:39:05 51°25.153 2°46.369 16.0658 4.294581 33.9419 -3.020363
2011-06-17 08:39:09 51°25.165 2°46.36 16.0593 4.294478 33.942378 -3.020363
2011-06-17 08:39:15 51°25.184 2°46.345 16.0538 4.294374 33.942159 -3.020363
2011-06-17 08:39:20 51°25.2 2°46.333 16.0551 4.294374 33.943554 -3.020363
2011-06-17 08:39:25 51°25.216 2°46.321 16.0503 4.294374 33.943554 -3.020363
2011-06-17 08:39:29 51°25.229 2°46.312 16.0487 4.294478 33.946562 -3.020363
2011-06-17 08:39:35 51°25.248 2°46.298 16.0504 4.294582 33.949571 -3.020363
2011-06-17 08:39:40 51°25.263 2°46.287 16.0438 4.294582 33.950966 -3.020363
2011-06-17 08:39:45 51°25.279 2°46.276 16.0419 4.294685 33.953278 -3.020363
2011-06-17 08:39:49 51°25.292 2°46.266 16.0376 4.294789 33.956288 -3.020363
2011-06-17 08:39:55 51°25.311 2°46.253 16.0404 4.294789 33.956288 -3.020363
2011-06-17 08:40:00 51°25.327 2°46.242 16.0372 4.294685 33.957464 -3.020363
2011-06-17 08:40:05 51°25.343 2°46.232 16.0333 4.294478 33.957724 -3.020363
2011-06-17 08:40:10 51°25.359 2°46.22 16.0299 4.294996 33.963704 -3.020363
2011-06-17 08:40:15 51°25.375 2°46.209 16.0269 4.2951 33.966716 -3.020363
2011-06-17 08:40:20 51°25.39 2°46.197 16.0231 4.295204 33.970426 -3.020363
2011-06-17 08:40:25 51°25.406 2°46.185 16.0186 4.295204 33.970426 -3.020363
2011-06-17 08:40:30 51°25.422 2°46.173 16.0124 4.295411 33.974355 -3.020363
2011-06-17 08:40:35 51°25.437 2°46.162 16.0076 4.295515 33.976669 -3.020363
2011-06-17 08:40:40 51°25.453 2°46.149 16.0072 4.295826 33.982215 -3.020363
2011-06-17 08:40:45 51°25.469 2°46.137 15.9966 4.296137 33.987063 -3.020363
2011-06-17 08:40:50 51°25.484 2°46.125 15.9887 4.296448 33.99331 -3.020363
2011-06-17 08:40:55 51°25.499 2°46.112 15.9911 4.296448 33.99331 -3.020363
2011-06-17 08:41:00 51°25.515 2°46.099 15.9847 4.296656 33.997942 -3.020363
2011-06-17 08:41:05 51°25.53 2°46.086 15.9877 4.296967 34.00489 -3.020363
2011-06-17 08:41:09 51°25.543 2°46.077 15.9817 4.297278 34.011841 -3.020363
2011-06-17 08:41:15 51°25.562 2°46.062 15.9825 4.297589 34.019494 -3.020363
2011-06-17 08:41:20 51°25.578 2°46.05 15.9808 4.298004 34.028067 -3.020363
2011-06-17 08:41:25 51°25.593 2°46.039 15.9809 4.298004 34.028067 -3.020363
2011-06-17 08:41:29 51°25.606 2°46.03 15.9833 4.298315 34.036425 -3.020363
2011-06-17 08:41:35 51°25.625 2°46.016 15.9797 4.298316 34.040629 -3.020363
2011-06-17 08:41:40 51°25.64 2°46.005 15.984 4.298523 34.045269 -3.020363
2011-06-17 08:41:45 51°25.656 2°45.995 15.9793 4.298523 34.047372 -3.020363
2011-06-17 08:41:49 51°25.669 2°45.986 15.9809 4.298523 34.049476 -3.020363
2011-06-17 08:41:55 51°25.688 2°45.973 15.9726 4.298523 34.049476 -3.020363
2011-06-17 08:42:00 51°25.704 2°45.963 15.9678 4.298419 34.050661 -3.020363
2011-06-17 08:42:05 51°25.72 2°45.952 15.961 4.298419 34.051362 -3.020363
2011-06-17 08:42:09 51°25.732 2°45.943 15.9647 4.298419 34.051362 -3.020363
2011-06-17 08:42:15 51°25.751 2°45.931 15.9617 4.298523 34.053683 -3.020363
2011-06-17 08:42:20 51°25.767 2°45.919 15.9583 4.298731 34.056222 -3.020363
2011-06-17 08:42:25 51°25.782 2°45.908 15.9451 4.298731 34.056222 -3.020363
2011-06-17 08:42:30 51°25.798 2°45.896 15.9441 4.299042 34.060381 -3.020363
2011-06-17 08:42:35 51°25.814 2°45.885 15.9412 4.299249 34.065727 -3.020363
2011-06-17 08:42:40 51°25.829 2°45.874 15.9294 4.299768 34.074533 -3.020363
2011-06-17 08:42:45 51°25.845 2°45.863 15.9239 4.299871 34.077558 -3.020363
2011-06-17 08:42:49 51°25.858 2°45.855 15.9227 4.300079 34.081503 -3.020363
2011-06-17 08:42:55 51°25.877 2°45.842 15.9219 4.300079 34.081503 -3.020363
2011-06-17 08:43:00 51°25.892 2°45.831 15.9238 4.300701 34.091935 -3.020363
2011-06-17 08:43:05 51°25.908 2°45.82 15.9128 4.301323 34.101667 -3.020363
2011-06-17 08:43:09 51°25.92 2°45.811 15.9065 4.301842 34.110483 -3.020363
2011-06-17 08:43:15 51°25.939 2°45.797 15.8987 4.302153 34.119572 -3.020363
2011-06-17 08:43:20 51°25.955 2°45.785 15.9002 4.302464 34.128665 -3.020363
2011-06-17 08:43:25 51°25.97 2°45.773 15.8961 4.302464 34.128665 -3.020363
2011-06-17 08:43:29 51°25.983 2°45.763 15.8956 4.302672 34.134025 -3.020363
2011-06-17 08:43:35 51°26.001 2°45.749 15.8983 4.302983 34.139602 -3.020363
2011-06-17 08:43:40 51°26.016 2°45.737 15.8878 4.303294 34.14518 -3.020363
2011-06-17 08:43:45 51°26.032 2°45.726 15.8937 4.303605 34.153578 -3.020363
2011-06-17 08:43:50 51°26.048 2°45.714 15.885 4.303813 34.161058 -3.020363
2011-06-17 08:43:55 51°26.064 2°45.704 15.8838 4.303813 34.161058 -3.020363
2011-06-17 08:44:00 51°26.079 2°45.692 15.8853 4.303813 34.165289 -3.020363
2011-06-17 08:44:05 51°26.095 2°45.681 15.8768 4.303916 34.169031 -3.020363
2011-06-17 08:44:09 51°26.107 2°45.671 15.8784 4.30402 34.171362 -3.020363
2011-06-17 08:44:15 51°26.126 2°45.656 15.8738 4.304228 34.176026 -3.020363
2011-06-17 08:44:20 51°26.142 2°45.644 15.8761 4.304331 34.179064 -3.020363
2011-06-17 08:44:25 51°26.157 2°45.632 15.8742 4.304331 34.179064 -3.020363
2011-06-17 08:44:30 51°26.172 2°45.62 15.8739 4.304435 34.182809 -3.020363
2011-06-17 08:44:35 51°26.188 2°45.608 15.8663 4.304643 34.187475 -3.020363
2011-06-17 08:44:40 51°26.203 2°45.595 15.8636 4.304746 34.19122 -3.020363
2011-06-17 08:44:45 51°26.219 2°45.584 15.8658 4.30485 34.19426 -3.020363
2011-06-17 08:44:50 51°26.234 2°45.571 15.8544 4.305057 34.198222 -3.020363
2011-06-17 08:44:55 51°26.25 2°45.559 15.8534 4.305057 34.198222 -3.020363
2011-06-17 08:45:00 51°26.265 2°45.546 15.8446 4.304954 34.198714 -3.020363
2011-06-17 08:45:05 51°26.281 2°45.534 15.8302 4.305265 34.202185 -3.020363
2011-06-17 08:45:10 51°26.296 2°45.523 15.8349 4.305472 34.206854 -3.020363
2011-06-17 08:45:15 51°26.312 2°45.51 15.8227 4.30568 34.211524 -3.020363
2011-06-17 08:45:20 51°26.328 2°45.498 15.8111 4.305887 34.215489 -3.020363
2011-06-17 08:45:25 51°26.343 2°45.485 15.8164 4.305887 34.215489 -3.020363
2011-06-17 08:45:29 51°26.355 2°45.476 15.808 4.306198 34.223204 -3.020363
2011-06-17 08:45:35 51°26.374 2°45.462 15.8053 4.306406 34.231416 -3.020363
2011-06-17 08:45:40 51°26.39 2°45.45 15.7971 4.306717 34.239844 -3.020363
2011-06-17 08:45:45 51°26.406 2°45.439 15.7946 4.306821 34.246432 -3.020363
2011-06-17 08:45:49 51°26.418 2°45.43 15.7928 4.306925 34.25373 -3.020363
2011-06-17 08:45:55 51°26.437 2°45.418 15.7877 4.306925 34.25373 -3.020363
2011-06-17 08:46:00 51°26.453 2°45.406 15.7911 4.306821 34.259895 -3.020363
2011-06-17 08:46:05 51°26.469 2°45.396 15.7811 4.307029 34.265994 -3.020363
2011-06-17 08:46:09 51°26.481 2°45.387 15.7819 4.307132 34.271172 -3.020363
2011-06-17 08:46:15 51°26.501 2°45.375 15.7805 4.307132 34.275429 -3.020363
2011-06-17 08:46:20 51°26.516 2°45.363 15.7725 4.307132 34.279687 -3.020363
2011-06-17 08:46:25 51°26.532 2°45.353 15.7738 4.307132 34.279687 -3.020363
2011-06-17 08:46:29 51°26.545 2°45.345 15.7646 4.307132 34.283945 -3.020363
2011-06-17 08:46:35 51°26.564 2°45.331 15.7653 4.307133 34.288206 -3.020363
2011-06-17 08:46:40 51°26.58 2°45.32 15.7583 4.307029 34.289413 -3.020363
2011-06-17 08:46:45 51°26.595 2°45.308 15.761 4.306925 34.29204 -3.020363
2011-06-17 08:46:49 51°26.608 2°45.3 15.7572 4.306925 34.295592 -3.020363
2011-06-17 08:46:55 51°26.627 2°45.286 15.7554 4.306925 34.295592 -3.020363
2011-06-17 08:47:00 51°26.643 2°45.275 15.7411 4.306925 34.299145 -3.020363
2011-06-17 08:47:05 51°26.658 2°45.263 15.745 4.306822 34.302486 -3.020363
2011-06-17 08:47:10 51°26.674 2°45.251 15.7389 4.306822 34.304618 -3.020363
2011-06-17 08:47:15 51°26.69 2°45.239 15.7403 4.306718 34.307961 -3.020363
2011-06-17 08:47:20 51°26.705 2°45.227 15.7424 4.306614 34.310592 -3.020363
2011-06-17 08:47:25 51°26.721 2°45.214 15.739 4.306614 34.310592 -3.020363
2011-06-17 08:47:30 51°26.736 2°45.201 15.738 4.306407 34.311589 -3.020363
2011-06-17 08:47:35 51°26.752 2°45.189 15.7351 4.306407 34.315858 -3.020363
2011-06-17 08:47:40 51°26.768 2°45.177 15.7388 4.3062 34.317567 -3.020363
2011-06-17 08:47:45 51°26.783 2°45.165 15.7369 4.306096 34.319489 -3.020363
2011-06-17 08:47:50 51°26.799 2°45.152 15.7473 4.305889 34.320488 -3.020363
2011-06-17 08:47:55 51°26.815 2°45.142 15.7407 4.305889 34.320488 -3.020363
2011-06-17 08:48:00 51°26.831 2°45.13 15.7353 4.305681 34.319351 -3.020363
2011-06-17 08:48:05 51°26.847 2°45.119 15.7368 4.305578 34.31985 -3.020363
2011-06-17 08:48:10 51°26.862 2°45.107 15.7362 4.30537 34.319424 -3.020363
2011-06-17 08:48:15 51°26.878 2°45.097 15.7408 4.305267 34.319212 -3.020363
2011-06-17 08:48:20 51°26.894 2°45.086 15.7333 4.305163 34.318287 -3.020363
2011-06-17 08:48:25 51°26.91 2°45.075 15.7364 4.305163 34.318287 -3.020363
2011-06-17 08:48:29 51°26.922 2°45.066 15.7413 4.305163 34.316863 -3.020363
2011-06-17 08:48:35 51°26.941 2°45.053 15.7326 4.305059 34.315939 -3.020363
2011-06-17 08:48:40 51°26.957 2°45.041 15.7333 4.305163 34.318287 -3.020363
2011-06-17 08:48:45 51°26.973 2°45.031 15.7325 4.305059 34.318075 -3.020363
2011-06-17 08:48:50 51°26.989 2°45.019 15.7264 4.304956 34.318574 -3.020363
2011-06-17 08:48:55 51°27.005 2°45.008 15.7335 4.304956 34.318574 -3.020363
2011-06-17 08:49:00 51°27.021 2°44.996 15.7255 4.304956 34.318574 -3.020363
2011-06-17 08:49:05 51°27.037 2°44.984 15.7271 4.304852 34.316937 -3.020363
2011-06-17 08:49:10 51°27.052 2°44.971 15.7234 4.304956 34.318574 -3.020363
2011-06-17 08:49:15 51°27.068 2°44.959 15.7225 4.304956 34.319998 -3.020363
2011-06-17 08:49:20 51°27.084 2°44.947 15.7189 4.304956 34.322134 -3.020363
2011-06-17 08:49:25 51°27.099 2°44.935 15.7153 4.304956 34.322134 -3.020363
2011-06-17 08:49:30 51°27.115 2°44.923 15.7135 4.304956 34.323558 -3.020363
2011-06-17 08:49:35 51°27.131 2°44.91 15.7096 4.304956 34.325695 -3.020363
2011-06-17 08:49:40 51°27.146 2°44.897 15.7103 4.304956 34.327119 -3.020363
2011-06-17 08:49:45 51°27.162 2°44.885 15.7065 4.30506 34.329469 -3.020363
2011-06-17 08:49:49 51°27.175 2°44.875 15.6988 4.30506 34.331607 -3.020363
2011-06-17 08:49:55 51°27.193 2°44.859 15.6945 4.30506 34.331607 -3.020363
2011-06-17 08:50:00 51°27.209 2°44.846 15.699 4.30506 34.333032 -3.020363
2011-06-17 08:50:05 51°27.224 2°44.833 15.6878 4.305163 34.33752 -3.020363
2011-06-17 08:50:09 51°27.237 2°44.823 15.6851 4.305163 34.338946 -3.020363
2011-06-17 08:50:15 51°27.255 2°44.807 15.6787 4.305371 34.343648 -3.020363
2011-06-17 08:50:20 51°27.271 2°44.794 15.6722 4.305371 34.345787 -3.020363
2011-06-17 08:50:25 51°27.286 2°44.781 15.6654 4.305371 34.345787 -3.020363